<?xml version="1.0" encoding="UTF-8" standalone="no" ?>
<gpx xmlns="http://www.topografix.com/GPX/1/1" xmlns:xsi="http://www.w3.org/2001/XMLSchema-instance" xsi:schemaLocation="http://www.topografix.com/GPX/1/1 http://www.topografix.com/GPX/1/1/gpx.xsd" version="1.1" creator="VisuGPX - https://www.visugpx.com">
  <metadata>
    <name>Randonnée raquettes CHAMPIS.</name>
    <desc><![CDATA[Départ stand de tir LISPACH-tour des CHAMPIS de la BRESSE.]]></desc>
  </metadata>
  <trk>
    <name><![CDATA[2018-02-20 15:02:23]]></name>
    <trkseg>
      <trkpt lat="48.04313" lon="6.93249">
        <ele>861.83</ele>
        <time>2018-02-20T09:30:41Z</time>
      </trkpt>
      <trkpt lat="48.04314" lon="6.93249">
        <ele>861.83</ele>
        <time>2018-02-20T09:30:42Z</time>
      </trkpt>
      <trkpt lat="48.04313" lon="6.93249">
        <ele>861.54</ele>
        <time>2018-02-20T09:31:06Z</time>
      </trkpt>
      <trkpt lat="48.04309" lon="6.93251">
        <ele>860.67</ele>
        <time>2018-02-20T09:31:25Z</time>
      </trkpt>
      <trkpt lat="48.04313" lon="6.93248">
        <ele>861.34</ele>
        <time>2018-02-20T09:31:54Z</time>
      </trkpt>
      <trkpt lat="48.04314" lon="6.93247">
        <ele>861.29</ele>
        <time>2018-02-20T09:32:04Z</time>
      </trkpt>
      <trkpt lat="48.04314" lon="6.93248">
        <ele>858.02</ele>
        <time>2018-02-20T09:32:23Z</time>
      </trkpt>
      <trkpt lat="48.04314" lon="6.93248">
        <ele>857.84</ele>
        <time>2018-02-20T09:32:24Z</time>
      </trkpt>
      <trkpt lat="48.04314" lon="6.93248">
        <ele>862.12</ele>
        <time>2018-02-20T09:32:25Z</time>
      </trkpt>
      <trkpt lat="48.04314" lon="6.93249">
        <ele>862.12</ele>
        <time>2018-02-20T09:32:26Z</time>
      </trkpt>
      <trkpt lat="48.04315" lon="6.93248">
        <ele>855.93</ele>
        <time>2018-02-20T09:32:27Z</time>
      </trkpt>
      <trkpt lat="48.04315" lon="6.93248">
        <ele>872.85</ele>
        <time>2018-02-20T09:32:29Z</time>
      </trkpt>
      <trkpt lat="48.04315" lon="6.93248">
        <ele>861.89</ele>
        <time>2018-02-20T09:32:30Z</time>
      </trkpt>
      <trkpt lat="48.04314" lon="6.93253">
        <ele>860.24</ele>
        <time>2018-02-20T09:32:49Z</time>
      </trkpt>
      <trkpt lat="48.04315" lon="6.93262">
        <ele>855.75</ele>
        <time>2018-02-20T09:33:05Z</time>
      </trkpt>
      <trkpt lat="48.04315" lon="6.93262">
        <ele>863.08</ele>
        <time>2018-02-20T09:33:06Z</time>
      </trkpt>
      <trkpt lat="48.04314" lon="6.93262">
        <ele>861.8</ele>
        <time>2018-02-20T09:33:09Z</time>
      </trkpt>
      <trkpt lat="48.0431" lon="6.93258">
        <ele>861.09</ele>
        <time>2018-02-20T09:33:25Z</time>
      </trkpt>
      <trkpt lat="48.0431" lon="6.93258">
        <ele>861.44</ele>
        <time>2018-02-20T09:33:51Z</time>
      </trkpt>
      <trkpt lat="48.04312" lon="6.93262">
        <ele>856.75</ele>
        <time>2018-02-20T09:34:00Z</time>
      </trkpt>
      <trkpt lat="48.04312" lon="6.93262">
        <ele>862.86</ele>
        <time>2018-02-20T09:34:01Z</time>
      </trkpt>
      <trkpt lat="48.04313" lon="6.93261">
        <ele>858.8</ele>
        <time>2018-02-20T09:34:03Z</time>
      </trkpt>
      <trkpt lat="48.04313" lon="6.93261">
        <ele>864.24</ele>
        <time>2018-02-20T09:34:04Z</time>
      </trkpt>
      <trkpt lat="48.04313" lon="6.93261">
        <ele>860.78</ele>
        <time>2018-02-20T09:34:07Z</time>
      </trkpt>
      <trkpt lat="48.04311" lon="6.93261">
        <ele>856.1</ele>
        <time>2018-02-20T09:34:33Z</time>
      </trkpt>
      <trkpt lat="48.04312" lon="6.93261">
        <ele>863.49</ele>
        <time>2018-02-20T09:34:34Z</time>
      </trkpt>
      <trkpt lat="48.04312" lon="6.93262">
        <ele>862.67</ele>
        <time>2018-02-20T09:34:35Z</time>
      </trkpt>
      <trkpt lat="48.04316" lon="6.93262">
        <ele>861.39</ele>
        <time>2018-02-20T09:34:38Z</time>
      </trkpt>
      <trkpt lat="48.04316" lon="6.93263">
        <ele>862.14</ele>
        <time>2018-02-20T09:34:54Z</time>
      </trkpt>
      <trkpt lat="48.04316" lon="6.93263">
        <ele>850.62</ele>
        <time>2018-02-20T09:34:55Z</time>
      </trkpt>
      <trkpt lat="48.04316" lon="6.93262">
        <ele>850.62</ele>
        <time>2018-02-20T09:34:56Z</time>
      </trkpt>
      <trkpt lat="48.04315" lon="6.93265">
        <ele>861.18</ele>
        <time>2018-02-20T09:35:11Z</time>
      </trkpt>
      <trkpt lat="48.04315" lon="6.93265">
        <ele>861.31</ele>
        <time>2018-02-20T09:35:12Z</time>
      </trkpt>
      <trkpt lat="48.04315" lon="6.9326">
        <ele>860.9</ele>
        <time>2018-02-20T09:35:30Z</time>
      </trkpt>
      <trkpt lat="48.04312" lon="6.93258">
        <ele>861.1</ele>
        <time>2018-02-20T09:35:53Z</time>
      </trkpt>
      <trkpt lat="48.04314" lon="6.93267">
        <ele>861.29</ele>
        <time>2018-02-20T09:36:12Z</time>
      </trkpt>
      <trkpt lat="48.04317" lon="6.93269">
        <ele>861.87</ele>
        <time>2018-02-20T09:36:16Z</time>
      </trkpt>
      <trkpt lat="48.04322" lon="6.93274">
        <ele>862.13</ele>
        <time>2018-02-20T09:36:21Z</time>
      </trkpt>
      <trkpt lat="48.04328" lon="6.93277">
        <ele>858.88</ele>
        <time>2018-02-20T09:36:37Z</time>
      </trkpt>
      <trkpt lat="48.04328" lon="6.93278">
        <ele>875.52</ele>
        <time>2018-02-20T09:36:40Z</time>
      </trkpt>
      <trkpt lat="48.04328" lon="6.93278">
        <ele>862.81</ele>
        <time>2018-02-20T09:36:41Z</time>
      </trkpt>
      <trkpt lat="48.04329" lon="6.93278">
        <ele>861.99</ele>
        <time>2018-02-20T09:36:43Z</time>
      </trkpt>
      <trkpt lat="48.04332" lon="6.93277">
        <ele>862.8</ele>
        <time>2018-02-20T09:37:09Z</time>
      </trkpt>
      <trkpt lat="48.04332" lon="6.93278">
        <ele>862.98</ele>
        <time>2018-02-20T09:37:37Z</time>
      </trkpt>
      <trkpt lat="48.04335" lon="6.93281">
        <ele>862.88</ele>
        <time>2018-02-20T09:37:54Z</time>
      </trkpt>
      <trkpt lat="48.04335" lon="6.93282">
        <ele>863.37</ele>
        <time>2018-02-20T09:38:22Z</time>
      </trkpt>
      <trkpt lat="48.04335" lon="6.93281">
        <ele>860.14</ele>
        <time>2018-02-20T09:38:36Z</time>
      </trkpt>
      <trkpt lat="48.04335" lon="6.93281">
        <ele>863.64</ele>
        <time>2018-02-20T09:38:38Z</time>
      </trkpt>
      <trkpt lat="48.04334" lon="6.93281">
        <ele>863.42</ele>
        <time>2018-02-20T09:39:05Z</time>
      </trkpt>
      <trkpt lat="48.04338" lon="6.93281">
        <ele>863.66</ele>
        <time>2018-02-20T09:39:36Z</time>
      </trkpt>
      <trkpt lat="48.04338" lon="6.93282">
        <ele>863.63</ele>
        <time>2018-02-20T09:40:06Z</time>
      </trkpt>
      <trkpt lat="48.04342" lon="6.93283">
        <ele>862.95</ele>
        <time>2018-02-20T09:40:15Z</time>
      </trkpt>
      <trkpt lat="48.04355" lon="6.93305">
        <ele>863.66</ele>
        <time>2018-02-20T09:40:31Z</time>
      </trkpt>
      <trkpt lat="48.04364" lon="6.93318">
        <ele>863.72</ele>
        <time>2018-02-20T09:40:39Z</time>
      </trkpt>
      <trkpt lat="48.04365" lon="6.93324">
        <ele>864.47</ele>
        <time>2018-02-20T09:40:43Z</time>
      </trkpt>
      <trkpt lat="48.04371" lon="6.93336">
        <ele>865.87</ele>
        <time>2018-02-20T09:40:50Z</time>
      </trkpt>
      <trkpt lat="48.0438" lon="6.9336">
        <ele>864.96</ele>
        <time>2018-02-20T09:41:05Z</time>
      </trkpt>
      <trkpt lat="48.04381" lon="6.93365">
        <ele>866.24</ele>
        <time>2018-02-20T09:41:08Z</time>
      </trkpt>
      <trkpt lat="48.04382" lon="6.93368">
        <ele>866.25</ele>
        <time>2018-02-20T09:41:10Z</time>
      </trkpt>
      <trkpt lat="48.04384" lon="6.93381">
        <ele>865.35</ele>
        <time>2018-02-20T09:41:18Z</time>
      </trkpt>
      <trkpt lat="48.04389" lon="6.93394">
        <ele>867.75</ele>
        <time>2018-02-20T09:41:29Z</time>
      </trkpt>
      <trkpt lat="48.04388" lon="6.934">
        <ele>867.29</ele>
        <time>2018-02-20T09:41:38Z</time>
      </trkpt>
      <trkpt lat="48.04387" lon="6.93402">
        <ele>869.83</ele>
        <time>2018-02-20T09:41:40Z</time>
      </trkpt>
      <trkpt lat="48.04382" lon="6.93406">
        <ele>867.8</ele>
        <time>2018-02-20T09:42:01Z</time>
      </trkpt>
      <trkpt lat="48.04384" lon="6.93405">
        <ele>867.92</ele>
        <time>2018-02-20T09:42:09Z</time>
      </trkpt>
      <trkpt lat="48.04383" lon="6.93403">
        <ele>868.34</ele>
        <time>2018-02-20T09:42:27Z</time>
      </trkpt>
      <trkpt lat="48.04385" lon="6.93414">
        <ele>869.24</ele>
        <time>2018-02-20T09:42:50Z</time>
      </trkpt>
      <trkpt lat="48.04383" lon="6.93417">
        <ele>872.46</ele>
        <time>2018-02-20T09:42:54Z</time>
      </trkpt>
      <trkpt lat="48.04365" lon="6.93423">
        <ele>874.74</ele>
        <time>2018-02-20T09:43:15Z</time>
      </trkpt>
      <trkpt lat="48.04352" lon="6.93428">
        <ele>873.86</ele>
        <time>2018-02-20T09:43:34Z</time>
      </trkpt>
      <trkpt lat="48.04351" lon="6.93428">
        <ele>877.76</ele>
        <time>2018-02-20T09:43:36Z</time>
      </trkpt>
      <trkpt lat="48.04347" lon="6.9343">
        <ele>877.51</ele>
        <time>2018-02-20T09:43:41Z</time>
      </trkpt>
      <trkpt lat="48.04337" lon="6.93437">
        <ele>878.57</ele>
        <time>2018-02-20T09:43:56Z</time>
      </trkpt>
      <trkpt lat="48.04349" lon="6.93438">
        <ele>878.18</ele>
        <time>2018-02-20T09:44:23Z</time>
      </trkpt>
      <trkpt lat="48.04326" lon="6.93448">
        <ele>879.12</ele>
        <time>2018-02-20T09:44:44Z</time>
      </trkpt>
      <trkpt lat="48.04325" lon="6.93448">
        <ele>882.7</ele>
        <time>2018-02-20T09:44:45Z</time>
      </trkpt>
      <trkpt lat="48.04304" lon="6.93452">
        <ele>882.62</ele>
        <time>2018-02-20T09:45:08Z</time>
      </trkpt>
      <trkpt lat="48.043" lon="6.93453">
        <ele>885.66</ele>
        <time>2018-02-20T09:45:12Z</time>
      </trkpt>
      <trkpt lat="48.0429" lon="6.93453">
        <ele>885.9</ele>
        <time>2018-02-20T09:45:24Z</time>
      </trkpt>
      <trkpt lat="48.04276" lon="6.93457">
        <ele>887.01</ele>
        <time>2018-02-20T09:45:41Z</time>
      </trkpt>
      <trkpt lat="48.04268" lon="6.93459">
        <ele>890.41</ele>
        <time>2018-02-20T09:45:51Z</time>
      </trkpt>
      <trkpt lat="48.04252" lon="6.93464">
        <ele>890</ele>
        <time>2018-02-20T09:46:10Z</time>
      </trkpt>
      <trkpt lat="48.04243" lon="6.93465">
        <ele>893.39</ele>
        <time>2018-02-20T09:46:24Z</time>
      </trkpt>
      <trkpt lat="48.04231" lon="6.93465">
        <ele>896.41</ele>
        <time>2018-02-20T09:46:43Z</time>
      </trkpt>
      <trkpt lat="48.0422" lon="6.93466">
        <ele>896.19</ele>
        <time>2018-02-20T09:47:05Z</time>
      </trkpt>
      <trkpt lat="48.04206" lon="6.9347">
        <ele>899.76</ele>
        <time>2018-02-20T09:47:21Z</time>
      </trkpt>
      <trkpt lat="48.04185" lon="6.93471">
        <ele>901.89</ele>
        <time>2018-02-20T09:47:45Z</time>
      </trkpt>
      <trkpt lat="48.04171" lon="6.93471">
        <ele>902.4</ele>
        <time>2018-02-20T09:48:01Z</time>
      </trkpt>
      <trkpt lat="48.04164" lon="6.93471">
        <ele>905.8</ele>
        <time>2018-02-20T09:48:08Z</time>
      </trkpt>
      <trkpt lat="48.04149" lon="6.93472">
        <ele>906.52</ele>
        <time>2018-02-20T09:48:28Z</time>
      </trkpt>
      <trkpt lat="48.04135" lon="6.93475">
        <ele>909.68</ele>
        <time>2018-02-20T09:48:48Z</time>
      </trkpt>
      <trkpt lat="48.04115" lon="6.93479">
        <ele>911.65</ele>
        <time>2018-02-20T09:49:12Z</time>
      </trkpt>
      <trkpt lat="48.04109" lon="6.9348">
        <ele>913</ele>
        <time>2018-02-20T09:49:28Z</time>
      </trkpt>
      <trkpt lat="48.04094" lon="6.93477">
        <ele>913.79</ele>
        <time>2018-02-20T09:49:49Z</time>
      </trkpt>
      <trkpt lat="48.04104" lon="6.93486">
        <ele>914</ele>
        <time>2018-02-20T09:50:14Z</time>
      </trkpt>
      <trkpt lat="48.041" lon="6.93485">
        <ele>913.1</ele>
        <time>2018-02-20T09:50:41Z</time>
      </trkpt>
      <trkpt lat="48.04082" lon="6.93474">
        <ele>916.78</ele>
        <time>2018-02-20T09:50:57Z</time>
      </trkpt>
      <trkpt lat="48.04061" lon="6.9347">
        <ele>917.04</ele>
        <time>2018-02-20T09:51:19Z</time>
      </trkpt>
      <trkpt lat="48.04045" lon="6.9346">
        <ele>920.47</ele>
        <time>2018-02-20T09:51:39Z</time>
      </trkpt>
      <trkpt lat="48.04036" lon="6.93456">
        <ele>920.9</ele>
        <time>2018-02-20T09:51:52Z</time>
      </trkpt>
      <trkpt lat="48.04024" lon="6.93449">
        <ele>923.05</ele>
        <time>2018-02-20T09:52:07Z</time>
      </trkpt>
      <trkpt lat="48.0401" lon="6.93444">
        <ele>924.65</ele>
        <time>2018-02-20T09:52:26Z</time>
      </trkpt>
      <trkpt lat="48.03992" lon="6.93441">
        <ele>926.62</ele>
        <time>2018-02-20T09:52:50Z</time>
      </trkpt>
      <trkpt lat="48.0398" lon="6.93444">
        <ele>927.5</ele>
        <time>2018-02-20T09:53:11Z</time>
      </trkpt>
      <trkpt lat="48.03975" lon="6.93447">
        <ele>930.25</ele>
        <time>2018-02-20T09:53:18Z</time>
      </trkpt>
      <trkpt lat="48.03958" lon="6.93446">
        <ele>931.62</ele>
        <time>2018-02-20T09:53:36Z</time>
      </trkpt>
      <trkpt lat="48.0394" lon="6.93439">
        <ele>934.19</ele>
        <time>2018-02-20T09:53:56Z</time>
      </trkpt>
      <trkpt lat="48.0393" lon="6.93437">
        <ele>934.98</ele>
        <time>2018-02-20T09:54:09Z</time>
      </trkpt>
      <trkpt lat="48.03923" lon="6.93438">
        <ele>935.67</ele>
        <time>2018-02-20T09:54:17Z</time>
      </trkpt>
      <trkpt lat="48.03913" lon="6.93442">
        <ele>936.85</ele>
        <time>2018-02-20T09:54:30Z</time>
      </trkpt>
      <trkpt lat="48.03897" lon="6.93447">
        <ele>939.32</ele>
        <time>2018-02-20T09:54:47Z</time>
      </trkpt>
      <trkpt lat="48.03889" lon="6.93447">
        <ele>939.74</ele>
        <time>2018-02-20T09:55:00Z</time>
      </trkpt>
      <trkpt lat="48.0389" lon="6.9345">
        <ele>939.86</ele>
        <time>2018-02-20T09:55:19Z</time>
      </trkpt>
      <trkpt lat="48.03892" lon="6.93455">
        <ele>939.12</ele>
        <time>2018-02-20T09:55:49Z</time>
      </trkpt>
      <trkpt lat="48.03893" lon="6.93458">
        <ele>939.24</ele>
        <time>2018-02-20T09:56:04Z</time>
      </trkpt>
      <trkpt lat="48.03895" lon="6.93465">
        <ele>938.64</ele>
        <time>2018-02-20T09:56:39Z</time>
      </trkpt>
      <trkpt lat="48.03894" lon="6.93465">
        <ele>938.53</ele>
        <time>2018-02-20T09:56:47Z</time>
      </trkpt>
      <trkpt lat="48.03891" lon="6.93473">
        <ele>938.19</ele>
        <time>2018-02-20T09:57:01Z</time>
      </trkpt>
      <trkpt lat="48.03896" lon="6.9347">
        <ele>938.11</ele>
        <time>2018-02-20T09:57:07Z</time>
      </trkpt>
      <trkpt lat="48.03889" lon="6.93467">
        <ele>938.28</ele>
        <time>2018-02-20T09:57:36Z</time>
      </trkpt>
      <trkpt lat="48.03882" lon="6.93469">
        <ele>938.17</ele>
        <time>2018-02-20T09:58:03Z</time>
      </trkpt>
      <trkpt lat="48.03881" lon="6.93469">
        <ele>937.88</ele>
        <time>2018-02-20T09:58:12Z</time>
      </trkpt>
      <trkpt lat="48.03879" lon="6.93471">
        <ele>938.98</ele>
        <time>2018-02-20T09:58:36Z</time>
      </trkpt>
      <trkpt lat="48.0388" lon="6.93468">
        <ele>939.16</ele>
        <time>2018-02-20T09:58:46Z</time>
      </trkpt>
      <trkpt lat="48.03876" lon="6.93465">
        <ele>938.96</ele>
        <time>2018-02-20T09:59:13Z</time>
      </trkpt>
      <trkpt lat="48.03876" lon="6.93462">
        <ele>939.65</ele>
        <time>2018-02-20T09:59:38Z</time>
      </trkpt>
      <trkpt lat="48.03869" lon="6.93466">
        <ele>940.66</ele>
        <time>2018-02-20T10:00:01Z</time>
      </trkpt>
      <trkpt lat="48.03859" lon="6.93469">
        <ele>942.05</ele>
        <time>2018-02-20T10:00:14Z</time>
      </trkpt>
      <trkpt lat="48.03855" lon="6.93466">
        <ele>941.93</ele>
        <time>2018-02-20T10:00:28Z</time>
      </trkpt>
      <trkpt lat="48.03855" lon="6.93465">
        <ele>941.61</ele>
        <time>2018-02-20T10:00:38Z</time>
      </trkpt>
      <trkpt lat="48.03849" lon="6.9347">
        <ele>941.86</ele>
        <time>2018-02-20T10:00:53Z</time>
      </trkpt>
      <trkpt lat="48.03841" lon="6.93461">
        <ele>943.63</ele>
        <time>2018-02-20T10:01:14Z</time>
      </trkpt>
      <trkpt lat="48.0383" lon="6.93451">
        <ele>945.96</ele>
        <time>2018-02-20T10:01:30Z</time>
      </trkpt>
      <trkpt lat="48.03826" lon="6.93447">
        <ele>945.53</ele>
        <time>2018-02-20T10:01:37Z</time>
      </trkpt>
      <trkpt lat="48.03816" lon="6.93441">
        <ele>948.89</ele>
        <time>2018-02-20T10:01:51Z</time>
      </trkpt>
      <trkpt lat="48.03802" lon="6.9343">
        <ele>949.78</ele>
        <time>2018-02-20T10:02:16Z</time>
      </trkpt>
      <trkpt lat="48.03789" lon="6.93419">
        <ele>950.37</ele>
        <time>2018-02-20T10:02:37Z</time>
      </trkpt>
      <trkpt lat="48.03784" lon="6.93417">
        <ele>953.5</ele>
        <time>2018-02-20T10:02:43Z</time>
      </trkpt>
      <trkpt lat="48.03772" lon="6.93408">
        <ele>953.49</ele>
        <time>2018-02-20T10:02:59Z</time>
      </trkpt>
      <trkpt lat="48.03753" lon="6.93401">
        <ele>956.81</ele>
        <time>2018-02-20T10:03:17Z</time>
      </trkpt>
      <trkpt lat="48.03745" lon="6.93395">
        <ele>955.72</ele>
        <time>2018-02-20T10:03:30Z</time>
      </trkpt>
      <trkpt lat="48.03735" lon="6.93392">
        <ele>958.78</ele>
        <time>2018-02-20T10:03:38Z</time>
      </trkpt>
      <trkpt lat="48.03731" lon="6.93389">
        <ele>958.13</ele>
        <time>2018-02-20T10:04:00Z</time>
      </trkpt>
      <trkpt lat="48.03724" lon="6.93388">
        <ele>959.39</ele>
        <time>2018-02-20T10:04:25Z</time>
      </trkpt>
      <trkpt lat="48.03708" lon="6.93379">
        <ele>962.83</ele>
        <time>2018-02-20T10:04:46Z</time>
      </trkpt>
      <trkpt lat="48.03695" lon="6.93372">
        <ele>962.8</ele>
        <time>2018-02-20T10:05:06Z</time>
      </trkpt>
      <trkpt lat="48.03693" lon="6.93372">
        <ele>963.42</ele>
        <time>2018-02-20T10:05:11Z</time>
      </trkpt>
      <trkpt lat="48.03679" lon="6.93358">
        <ele>964.37</ele>
        <time>2018-02-20T10:05:35Z</time>
      </trkpt>
      <trkpt lat="48.03669" lon="6.93353">
        <ele>967.53</ele>
        <time>2018-02-20T10:05:48Z</time>
      </trkpt>
      <trkpt lat="48.03654" lon="6.93342">
        <ele>969.08</ele>
        <time>2018-02-20T10:06:10Z</time>
      </trkpt>
      <trkpt lat="48.0364" lon="6.93335">
        <ele>970.36</ele>
        <time>2018-02-20T10:06:33Z</time>
      </trkpt>
      <trkpt lat="48.03627" lon="6.93328">
        <ele>973.26</ele>
        <time>2018-02-20T10:06:53Z</time>
      </trkpt>
      <trkpt lat="48.03609" lon="6.93318">
        <ele>973.63</ele>
        <time>2018-02-20T10:07:19Z</time>
      </trkpt>
      <trkpt lat="48.03603" lon="6.93315">
        <ele>976.01</ele>
        <time>2018-02-20T10:07:25Z</time>
      </trkpt>
      <trkpt lat="48.03591" lon="6.93303">
        <ele>976.37</ele>
        <time>2018-02-20T10:07:41Z</time>
      </trkpt>
      <trkpt lat="48.03585" lon="6.93298">
        <ele>979.37</ele>
        <time>2018-02-20T10:07:49Z</time>
      </trkpt>
      <trkpt lat="48.03571" lon="6.93279">
        <ele>978.82</ele>
        <time>2018-02-20T10:08:11Z</time>
      </trkpt>
      <trkpt lat="48.0357" lon="6.93278">
        <ele>981.93</ele>
        <time>2018-02-20T10:08:12Z</time>
      </trkpt>
      <trkpt lat="48.03551" lon="6.93264">
        <ele>984.59</ele>
        <time>2018-02-20T10:08:40Z</time>
      </trkpt>
      <trkpt lat="48.03546" lon="6.93254">
        <ele>983.64</ele>
        <time>2018-02-20T10:09:06Z</time>
      </trkpt>
      <trkpt lat="48.03541" lon="6.93253">
        <ele>987.05</ele>
        <time>2018-02-20T10:09:17Z</time>
      </trkpt>
      <trkpt lat="48.03525" lon="6.9325">
        <ele>988.31</ele>
        <time>2018-02-20T10:09:35Z</time>
      </trkpt>
      <trkpt lat="48.03507" lon="6.93242">
        <ele>989.98</ele>
        <time>2018-02-20T10:09:57Z</time>
      </trkpt>
      <trkpt lat="48.03496" lon="6.93239">
        <ele>990.95</ele>
        <time>2018-02-20T10:10:17Z</time>
      </trkpt>
      <trkpt lat="48.03478" lon="6.93234">
        <ele>993.47</ele>
        <time>2018-02-20T10:10:41Z</time>
      </trkpt>
      <trkpt lat="48.03464" lon="6.93227">
        <ele>997.66</ele>
        <time>2018-02-20T10:11:03Z</time>
      </trkpt>
      <trkpt lat="48.03464" lon="6.93227">
        <ele>994.81</ele>
        <time>2018-02-20T10:11:04Z</time>
      </trkpt>
      <trkpt lat="48.03459" lon="6.93219">
        <ele>995.91</ele>
        <time>2018-02-20T10:11:28Z</time>
      </trkpt>
      <trkpt lat="48.03442" lon="6.93214">
        <ele>999.04</ele>
        <time>2018-02-20T10:11:46Z</time>
      </trkpt>
      <trkpt lat="48.03424" lon="6.93209">
        <ele>1001.43</ele>
        <time>2018-02-20T10:12:06Z</time>
      </trkpt>
      <trkpt lat="48.03413" lon="6.93207">
        <ele>1003.01</ele>
        <time>2018-02-20T10:12:22Z</time>
      </trkpt>
      <trkpt lat="48.03409" lon="6.93211">
        <ele>1002.03</ele>
        <time>2018-02-20T10:12:30Z</time>
      </trkpt>
      <trkpt lat="48.03408" lon="6.9322">
        <ele>1002.53</ele>
        <time>2018-02-20T10:12:43Z</time>
      </trkpt>
      <trkpt lat="48.0341" lon="6.93221">
        <ele>1002.04</ele>
        <time>2018-02-20T10:13:08Z</time>
      </trkpt>
      <trkpt lat="48.03408" lon="6.93221">
        <ele>1001.41</ele>
        <time>2018-02-20T10:13:16Z</time>
      </trkpt>
      <trkpt lat="48.03406" lon="6.9322">
        <ele>1001.42</ele>
        <time>2018-02-20T10:13:18Z</time>
      </trkpt>
      <trkpt lat="48.0339" lon="6.93202">
        <ele>1004.33</ele>
        <time>2018-02-20T10:13:39Z</time>
      </trkpt>
      <trkpt lat="48.03378" lon="6.93191">
        <ele>1007.52</ele>
        <time>2018-02-20T10:13:56Z</time>
      </trkpt>
      <trkpt lat="48.03377" lon="6.9319">
        <ele>1006.31</ele>
        <time>2018-02-20T10:13:57Z</time>
      </trkpt>
      <trkpt lat="48.03362" lon="6.93175">
        <ele>1010.01</ele>
        <time>2018-02-20T10:14:19Z</time>
      </trkpt>
      <trkpt lat="48.0335" lon="6.93159">
        <ele>1012.25</ele>
        <time>2018-02-20T10:14:39Z</time>
      </trkpt>
      <trkpt lat="48.03336" lon="6.93151">
        <ele>1012.76</ele>
        <time>2018-02-20T10:14:59Z</time>
      </trkpt>
      <trkpt lat="48.03328" lon="6.93144">
        <ele>1012.86</ele>
        <time>2018-02-20T10:15:09Z</time>
      </trkpt>
      <trkpt lat="48.03315" lon="6.93129">
        <ele>1015.96</ele>
        <time>2018-02-20T10:15:31Z</time>
      </trkpt>
      <trkpt lat="48.03313" lon="6.93125">
        <ele>1015.16</ele>
        <time>2018-02-20T10:15:37Z</time>
      </trkpt>
      <trkpt lat="48.03304" lon="6.93117">
        <ele>1018.23</ele>
        <time>2018-02-20T10:15:47Z</time>
      </trkpt>
      <trkpt lat="48.03288" lon="6.93105">
        <ele>1019.76</ele>
        <time>2018-02-20T10:16:07Z</time>
      </trkpt>
      <trkpt lat="48.03274" lon="6.9309">
        <ele>1021.82</ele>
        <time>2018-02-20T10:16:27Z</time>
      </trkpt>
      <trkpt lat="48.0326" lon="6.93079">
        <ele>1024.86</ele>
        <time>2018-02-20T10:16:48Z</time>
      </trkpt>
      <trkpt lat="48.03247" lon="6.93072">
        <ele>1025.1</ele>
        <time>2018-02-20T10:17:03Z</time>
      </trkpt>
      <trkpt lat="48.03226" lon="6.93063">
        <ele>1028.56</ele>
        <time>2018-02-20T10:17:25Z</time>
      </trkpt>
      <trkpt lat="48.03208" lon="6.93061">
        <ele>1030.73</ele>
        <time>2018-02-20T10:17:50Z</time>
      </trkpt>
      <trkpt lat="48.03192" lon="6.93062">
        <ele>1031.39</ele>
        <time>2018-02-20T10:18:12Z</time>
      </trkpt>
      <trkpt lat="48.03191" lon="6.93062">
        <ele>1032.3</ele>
        <time>2018-02-20T10:18:15Z</time>
      </trkpt>
      <trkpt lat="48.03176" lon="6.93077">
        <ele>1034.43</ele>
        <time>2018-02-20T10:18:36Z</time>
      </trkpt>
      <trkpt lat="48.0317" lon="6.93106">
        <ele>1036.93</ele>
        <time>2018-02-20T10:18:58Z</time>
      </trkpt>
      <trkpt lat="48.03164" lon="6.93132">
        <ele>1038.7</ele>
        <time>2018-02-20T10:19:20Z</time>
      </trkpt>
      <trkpt lat="48.03158" lon="6.93149">
        <ele>1041.74</ele>
        <time>2018-02-20T10:19:36Z</time>
      </trkpt>
      <trkpt lat="48.03155" lon="6.93168">
        <ele>1041.66</ele>
        <time>2018-02-20T10:19:59Z</time>
      </trkpt>
      <trkpt lat="48.03151" lon="6.93162">
        <ele>1041.98</ele>
        <time>2018-02-20T10:20:21Z</time>
      </trkpt>
      <trkpt lat="48.0315" lon="6.93169">
        <ele>1042.35</ele>
        <time>2018-02-20T10:20:41Z</time>
      </trkpt>
      <trkpt lat="48.03151" lon="6.93176">
        <ele>1042.38</ele>
        <time>2018-02-20T10:21:06Z</time>
      </trkpt>
      <trkpt lat="48.03152" lon="6.93186">
        <ele>1043.29</ele>
        <time>2018-02-20T10:21:29Z</time>
      </trkpt>
      <trkpt lat="48.03159" lon="6.93191">
        <ele>1043.41</ele>
        <time>2018-02-20T10:21:54Z</time>
      </trkpt>
      <trkpt lat="48.03154" lon="6.93195">
        <ele>1043.55</ele>
        <time>2018-02-20T10:22:16Z</time>
      </trkpt>
      <trkpt lat="48.03155" lon="6.93187">
        <ele>1043.51</ele>
        <time>2018-02-20T10:22:40Z</time>
      </trkpt>
      <trkpt lat="48.03155" lon="6.93182">
        <ele>1043.85</ele>
        <time>2018-02-20T10:23:03Z</time>
      </trkpt>
      <trkpt lat="48.03154" lon="6.93178">
        <ele>1043.73</ele>
        <time>2018-02-20T10:23:33Z</time>
      </trkpt>
      <trkpt lat="48.03152" lon="6.93176">
        <ele>1043.36</ele>
        <time>2018-02-20T10:24:02Z</time>
      </trkpt>
      <trkpt lat="48.03152" lon="6.9318">
        <ele>1043.46</ele>
        <time>2018-02-20T10:24:32Z</time>
      </trkpt>
      <trkpt lat="48.03153" lon="6.93175">
        <ele>1043.23</ele>
        <time>2018-02-20T10:25:08Z</time>
      </trkpt>
      <trkpt lat="48.03153" lon="6.93182">
        <ele>1044.16</ele>
        <time>2018-02-20T10:25:33Z</time>
      </trkpt>
      <trkpt lat="48.03149" lon="6.932">
        <ele>1046.12</ele>
        <time>2018-02-20T10:25:48Z</time>
      </trkpt>
      <trkpt lat="48.03144" lon="6.93219">
        <ele>1045.2</ele>
        <time>2018-02-20T10:26:08Z</time>
      </trkpt>
      <trkpt lat="48.03143" lon="6.93223">
        <ele>1048.43</ele>
        <time>2018-02-20T10:26:12Z</time>
      </trkpt>
      <trkpt lat="48.03137" lon="6.93242">
        <ele>1049.15</ele>
        <time>2018-02-20T10:26:32Z</time>
      </trkpt>
      <trkpt lat="48.03131" lon="6.93267">
        <ele>1049.06</ele>
        <time>2018-02-20T10:26:53Z</time>
      </trkpt>
      <trkpt lat="48.03127" lon="6.9328">
        <ele>1053.96</ele>
        <time>2018-02-20T10:27:02Z</time>
      </trkpt>
      <trkpt lat="48.03126" lon="6.93282">
        <ele>1050.68</ele>
        <time>2018-02-20T10:27:03Z</time>
      </trkpt>
      <trkpt lat="48.03125" lon="6.93284">
        <ele>1054.3</ele>
        <time>2018-02-20T10:27:05Z</time>
      </trkpt>
      <trkpt lat="48.03116" lon="6.93309">
        <ele>1055.96</ele>
        <time>2018-02-20T10:27:27Z</time>
      </trkpt>
      <trkpt lat="48.03107" lon="6.93339">
        <ele>1055.65</ele>
        <time>2018-02-20T10:27:49Z</time>
      </trkpt>
      <trkpt lat="48.03104" lon="6.93349">
        <ele>1058.95</ele>
        <time>2018-02-20T10:27:59Z</time>
      </trkpt>
      <trkpt lat="48.03097" lon="6.93375">
        <ele>1060.44</ele>
        <time>2018-02-20T10:28:23Z</time>
      </trkpt>
      <trkpt lat="48.03089" lon="6.93399">
        <ele>1062.07</ele>
        <time>2018-02-20T10:28:47Z</time>
      </trkpt>
      <trkpt lat="48.03081" lon="6.93417">
        <ele>1064.68</ele>
        <time>2018-02-20T10:29:09Z</time>
      </trkpt>
      <trkpt lat="48.03072" lon="6.93444">
        <ele>1064.48</ele>
        <time>2018-02-20T10:29:30Z</time>
      </trkpt>
      <trkpt lat="48.03068" lon="6.93457">
        <ele>1068.03</ele>
        <time>2018-02-20T10:29:42Z</time>
      </trkpt>
      <trkpt lat="48.03069" lon="6.93487">
        <ele>1069.94</ele>
        <time>2018-02-20T10:30:03Z</time>
      </trkpt>
      <trkpt lat="48.03066" lon="6.93517">
        <ele>1070.54</ele>
        <time>2018-02-20T10:30:26Z</time>
      </trkpt>
      <trkpt lat="48.03067" lon="6.93538">
        <ele>1073.69</ele>
        <time>2018-02-20T10:30:42Z</time>
      </trkpt>
      <trkpt lat="48.03061" lon="6.93566">
        <ele>1074.65</ele>
        <time>2018-02-20T10:31:06Z</time>
      </trkpt>
      <trkpt lat="48.03055" lon="6.9359">
        <ele>1078.03</ele>
        <time>2018-02-20T10:31:26Z</time>
      </trkpt>
      <trkpt lat="48.03051" lon="6.93618">
        <ele>1079.19</ele>
        <time>2018-02-20T10:31:49Z</time>
      </trkpt>
      <trkpt lat="48.0305" lon="6.93627">
        <ele>1080.36</ele>
        <time>2018-02-20T10:31:57Z</time>
      </trkpt>
      <trkpt lat="48.03048" lon="6.93645">
        <ele>1080.52</ele>
        <time>2018-02-20T10:32:19Z</time>
      </trkpt>
      <trkpt lat="48.03041" lon="6.93651">
        <ele>1082.2</ele>
        <time>2018-02-20T10:32:43Z</time>
      </trkpt>
      <trkpt lat="48.03039" lon="6.9366">
        <ele>1082.63</ele>
        <time>2018-02-20T10:33:03Z</time>
      </trkpt>
      <trkpt lat="48.0304" lon="6.93661">
        <ele>1082.32</ele>
        <time>2018-02-20T10:33:37Z</time>
      </trkpt>
      <trkpt lat="48.03044" lon="6.93659">
        <ele>1082.62</ele>
        <time>2018-02-20T10:34:19Z</time>
      </trkpt>
      <trkpt lat="48.03044" lon="6.93654">
        <ele>1082.54</ele>
        <time>2018-02-20T10:34:28Z</time>
      </trkpt>
      <trkpt lat="48.0304" lon="6.93656">
        <ele>1082.63</ele>
        <time>2018-02-20T10:34:56Z</time>
      </trkpt>
      <trkpt lat="48.03042" lon="6.93682">
        <ele>1083.17</ele>
        <time>2018-02-20T10:35:15Z</time>
      </trkpt>
      <trkpt lat="48.03043" lon="6.93693">
        <ele>1086.25</ele>
        <time>2018-02-20T10:35:22Z</time>
      </trkpt>
      <trkpt lat="48.03044" lon="6.93695">
        <ele>1085.49</ele>
        <time>2018-02-20T10:35:23Z</time>
      </trkpt>
      <trkpt lat="48.03044" lon="6.93712">
        <ele>1088.51</ele>
        <time>2018-02-20T10:35:34Z</time>
      </trkpt>
      <trkpt lat="48.03043" lon="6.93718">
        <ele>1085.35</ele>
        <time>2018-02-20T10:35:38Z</time>
      </trkpt>
      <trkpt lat="48.03043" lon="6.93725">
        <ele>1088.51</ele>
        <time>2018-02-20T10:35:42Z</time>
      </trkpt>
      <trkpt lat="48.03035" lon="6.93748">
        <ele>1090.02</ele>
        <time>2018-02-20T10:35:59Z</time>
      </trkpt>
      <trkpt lat="48.03033" lon="6.93754">
        <ele>1090.46</ele>
        <time>2018-02-20T10:36:03Z</time>
      </trkpt>
      <trkpt lat="48.03033" lon="6.93756">
        <ele>1091.85</ele>
        <time>2018-02-20T10:36:05Z</time>
      </trkpt>
      <trkpt lat="48.03032" lon="6.93761">
        <ele>1090.03</ele>
        <time>2018-02-20T10:36:08Z</time>
      </trkpt>
      <trkpt lat="48.03028" lon="6.93771">
        <ele>1093.12</ele>
        <time>2018-02-20T10:36:15Z</time>
      </trkpt>
      <trkpt lat="48.03024" lon="6.93784">
        <ele>1091.9</ele>
        <time>2018-02-20T10:36:24Z</time>
      </trkpt>
      <trkpt lat="48.03015" lon="6.93809">
        <ele>1095.09</ele>
        <time>2018-02-20T10:36:40Z</time>
      </trkpt>
      <trkpt lat="48.02999" lon="6.93838">
        <ele>1096.32</ele>
        <time>2018-02-20T10:37:02Z</time>
      </trkpt>
      <trkpt lat="48.02991" lon="6.9385">
        <ele>1099.56</ele>
        <time>2018-02-20T10:37:14Z</time>
      </trkpt>
      <trkpt lat="48.02987" lon="6.93857">
        <ele>1099.67</ele>
        <time>2018-02-20T10:37:21Z</time>
      </trkpt>
      <trkpt lat="48.0297" lon="6.93883">
        <ele>1103.06</ele>
        <time>2018-02-20T10:37:42Z</time>
      </trkpt>
      <trkpt lat="48.02959" lon="6.93908">
        <ele>1103.85</ele>
        <time>2018-02-20T10:38:05Z</time>
      </trkpt>
      <trkpt lat="48.02952" lon="6.93918">
        <ele>1103.59</ele>
        <time>2018-02-20T10:38:23Z</time>
      </trkpt>
      <trkpt lat="48.02951" lon="6.93921">
        <ele>1106.61</ele>
        <time>2018-02-20T10:38:27Z</time>
      </trkpt>
      <trkpt lat="48.02937" lon="6.93941">
        <ele>1106.54</ele>
        <time>2018-02-20T10:38:48Z</time>
      </trkpt>
      <trkpt lat="48.02931" lon="6.93951">
        <ele>1109.62</ele>
        <time>2018-02-20T10:38:59Z</time>
      </trkpt>
      <trkpt lat="48.02928" lon="6.93955">
        <ele>1109.51</ele>
        <time>2018-02-20T10:39:03Z</time>
      </trkpt>
      <trkpt lat="48.02914" lon="6.93978">
        <ele>1108.11</ele>
        <time>2018-02-20T10:39:25Z</time>
      </trkpt>
      <trkpt lat="48.02909" lon="6.93992">
        <ele>1110.53</ele>
        <time>2018-02-20T10:39:45Z</time>
      </trkpt>
      <trkpt lat="48.02906" lon="6.93985">
        <ele>1110.48</ele>
        <time>2018-02-20T10:40:13Z</time>
      </trkpt>
      <trkpt lat="48.02909" lon="6.93984">
        <ele>1109.44</ele>
        <time>2018-02-20T10:40:39Z</time>
      </trkpt>
      <trkpt lat="48.02913" lon="6.93986">
        <ele>1109.37</ele>
        <time>2018-02-20T10:40:59Z</time>
      </trkpt>
      <trkpt lat="48.02914" lon="6.93988">
        <ele>1109.61</ele>
        <time>2018-02-20T10:41:25Z</time>
      </trkpt>
      <trkpt lat="48.02917" lon="6.9399">
        <ele>1110.52</ele>
        <time>2018-02-20T10:41:41Z</time>
      </trkpt>
      <trkpt lat="48.02917" lon="6.93992">
        <ele>1106.11</ele>
        <time>2018-02-20T10:41:58Z</time>
      </trkpt>
      <trkpt lat="48.02917" lon="6.93992">
        <ele>1110.09</ele>
        <time>2018-02-20T10:41:59Z</time>
      </trkpt>
      <trkpt lat="48.02917" lon="6.93992">
        <ele>1110.18</ele>
        <time>2018-02-20T10:42:00Z</time>
      </trkpt>
      <trkpt lat="48.02918" lon="6.93992">
        <ele>1107.68</ele>
        <time>2018-02-20T10:42:06Z</time>
      </trkpt>
      <trkpt lat="48.02918" lon="6.93992">
        <ele>1111.09</ele>
        <time>2018-02-20T10:42:07Z</time>
      </trkpt>
      <trkpt lat="48.02918" lon="6.93991">
        <ele>1109.44</ele>
        <time>2018-02-20T10:42:12Z</time>
      </trkpt>
      <trkpt lat="48.02917" lon="6.93992">
        <ele>1109.69</ele>
        <time>2018-02-20T10:42:42Z</time>
      </trkpt>
      <trkpt lat="48.02918" lon="6.93991">
        <ele>1104.29</ele>
        <time>2018-02-20T10:42:47Z</time>
      </trkpt>
      <trkpt lat="48.02918" lon="6.93991">
        <ele>1114.08</ele>
        <time>2018-02-20T10:42:48Z</time>
      </trkpt>
      <trkpt lat="48.02919" lon="6.93991">
        <ele>1109.99</ele>
        <time>2018-02-20T10:42:50Z</time>
      </trkpt>
      <trkpt lat="48.0292" lon="6.93991">
        <ele>1109.86</ele>
        <time>2018-02-20T10:42:51Z</time>
      </trkpt>
      <trkpt lat="48.0292" lon="6.93992">
        <ele>1106.72</ele>
        <time>2018-02-20T10:42:56Z</time>
      </trkpt>
      <trkpt lat="48.0292" lon="6.93991">
        <ele>1111.69</ele>
        <time>2018-02-20T10:42:57Z</time>
      </trkpt>
      <trkpt lat="48.02921" lon="6.93991">
        <ele>1109.76</ele>
        <time>2018-02-20T10:43:00Z</time>
      </trkpt>
      <trkpt lat="48.02919" lon="6.93991">
        <ele>1105.45</ele>
        <time>2018-02-20T10:43:06Z</time>
      </trkpt>
      <trkpt lat="48.0292" lon="6.93992">
        <ele>1095.66</ele>
        <time>2018-02-20T10:43:07Z</time>
      </trkpt>
      <trkpt lat="48.0292" lon="6.93992">
        <ele>1125.69</ele>
        <time>2018-02-20T10:43:08Z</time>
      </trkpt>
      <trkpt lat="48.02921" lon="6.93987">
        <ele>1110.43</ele>
        <time>2018-02-20T10:43:39Z</time>
      </trkpt>
      <trkpt lat="48.02919" lon="6.93989">
        <ele>1110.25</ele>
        <time>2018-02-20T10:44:07Z</time>
      </trkpt>
      <trkpt lat="48.02923" lon="6.93987">
        <ele>1110.05</ele>
        <time>2018-02-20T10:44:27Z</time>
      </trkpt>
      <trkpt lat="48.02927" lon="6.93989">
        <ele>1110.11</ele>
        <time>2018-02-20T10:44:56Z</time>
      </trkpt>
      <trkpt lat="48.02926" lon="6.9399">
        <ele>1106.99</ele>
        <time>2018-02-20T10:45:01Z</time>
      </trkpt>
      <trkpt lat="48.02926" lon="6.9399">
        <ele>1113.4</ele>
        <time>2018-02-20T10:45:02Z</time>
      </trkpt>
      <trkpt lat="48.02926" lon="6.9399">
        <ele>1110.4</ele>
        <time>2018-02-20T10:45:03Z</time>
      </trkpt>
      <trkpt lat="48.02923" lon="6.93986">
        <ele>1111.29</ele>
        <time>2018-02-20T10:45:35Z</time>
      </trkpt>
      <trkpt lat="48.02923" lon="6.93986">
        <ele>1111.79</ele>
        <time>2018-02-20T10:45:39Z</time>
      </trkpt>
      <trkpt lat="48.02921" lon="6.93989">
        <ele>1110.43</ele>
        <time>2018-02-20T10:46:09Z</time>
      </trkpt>
      <trkpt lat="48.02919" lon="6.93986">
        <ele>1110.68</ele>
        <time>2018-02-20T10:46:38Z</time>
      </trkpt>
      <trkpt lat="48.02923" lon="6.93984">
        <ele>1105.55</ele>
        <time>2018-02-20T10:47:00Z</time>
      </trkpt>
      <trkpt lat="48.02923" lon="6.93984">
        <ele>1110.37</ele>
        <time>2018-02-20T10:47:01Z</time>
      </trkpt>
      <trkpt lat="48.02923" lon="6.93984">
        <ele>1116.41</ele>
        <time>2018-02-20T10:47:03Z</time>
      </trkpt>
      <trkpt lat="48.02923" lon="6.93984">
        <ele>1111.69</ele>
        <time>2018-02-20T10:47:04Z</time>
      </trkpt>
      <trkpt lat="48.02925" lon="6.93987">
        <ele>1111.04</ele>
        <time>2018-02-20T10:47:32Z</time>
      </trkpt>
      <trkpt lat="48.02925" lon="6.93986">
        <ele>1111.44</ele>
        <time>2018-02-20T10:48:00Z</time>
      </trkpt>
      <trkpt lat="48.02916" lon="6.93989">
        <ele>1111.76</ele>
        <time>2018-02-20T10:48:27Z</time>
      </trkpt>
      <trkpt lat="48.02916" lon="6.93988">
        <ele>1111.53</ele>
        <time>2018-02-20T10:48:30Z</time>
      </trkpt>
      <trkpt lat="48.02919" lon="6.93982">
        <ele>1111.64</ele>
        <time>2018-02-20T10:48:54Z</time>
      </trkpt>
      <trkpt lat="48.02922" lon="6.93982">
        <ele>1111.75</ele>
        <time>2018-02-20T10:49:15Z</time>
      </trkpt>
      <trkpt lat="48.02917" lon="6.93989">
        <ele>1111.75</ele>
        <time>2018-02-20T10:49:39Z</time>
      </trkpt>
      <trkpt lat="48.02914" lon="6.93995">
        <ele>1112.19</ele>
        <time>2018-02-20T10:50:03Z</time>
      </trkpt>
      <trkpt lat="48.02915" lon="6.93991">
        <ele>1111.81</ele>
        <time>2018-02-20T10:50:29Z</time>
      </trkpt>
      <trkpt lat="48.02919" lon="6.93988">
        <ele>1111.94</ele>
        <time>2018-02-20T10:50:58Z</time>
      </trkpt>
      <trkpt lat="48.02923" lon="6.9399">
        <ele>1112.35</ele>
        <time>2018-02-20T10:51:25Z</time>
      </trkpt>
      <trkpt lat="48.02922" lon="6.93991">
        <ele>1111.25</ele>
        <time>2018-02-20T10:51:54Z</time>
      </trkpt>
      <trkpt lat="48.02918" lon="6.93993">
        <ele>1112.88</ele>
        <time>2018-02-20T10:52:25Z</time>
      </trkpt>
      <trkpt lat="48.02916" lon="6.93992">
        <ele>1112.15</ele>
        <time>2018-02-20T10:52:52Z</time>
      </trkpt>
      <trkpt lat="48.02916" lon="6.93992">
        <ele>1111.87</ele>
        <time>2018-02-20T10:53:22Z</time>
      </trkpt>
      <trkpt lat="48.02916" lon="6.93998">
        <ele>1112.91</ele>
        <time>2018-02-20T10:53:45Z</time>
      </trkpt>
      <trkpt lat="48.02915" lon="6.93988">
        <ele>1112.19</ele>
        <time>2018-02-20T10:54:05Z</time>
      </trkpt>
      <trkpt lat="48.02913" lon="6.93975">
        <ele>1112.11</ele>
        <time>2018-02-20T10:54:32Z</time>
      </trkpt>
      <trkpt lat="48.02915" lon="6.93979">
        <ele>1112.24</ele>
        <time>2018-02-20T10:55:01Z</time>
      </trkpt>
      <trkpt lat="48.02919" lon="6.93991">
        <ele>1111.61</ele>
        <time>2018-02-20T10:55:28Z</time>
      </trkpt>
      <trkpt lat="48.02919" lon="6.93993">
        <ele>1113.12</ele>
        <time>2018-02-20T10:55:31Z</time>
      </trkpt>
      <trkpt lat="48.02933" lon="6.93991">
        <ele>1113.91</ele>
        <time>2018-02-20T10:55:54Z</time>
      </trkpt>
      <trkpt lat="48.02947" lon="6.93981">
        <ele>1117.59</ele>
        <time>2018-02-20T10:56:13Z</time>
      </trkpt>
      <trkpt lat="48.02963" lon="6.93977">
        <ele>1116.3</ele>
        <time>2018-02-20T10:56:33Z</time>
      </trkpt>
      <trkpt lat="48.02973" lon="6.93975">
        <ele>1119.45</ele>
        <time>2018-02-20T10:56:45Z</time>
      </trkpt>
      <trkpt lat="48.02993" lon="6.93972">
        <ele>1120.18</ele>
        <time>2018-02-20T10:57:09Z</time>
      </trkpt>
      <trkpt lat="48.03011" lon="6.93967">
        <ele>1122.85</ele>
        <time>2018-02-20T10:57:30Z</time>
      </trkpt>
      <trkpt lat="48.03031" lon="6.93959">
        <ele>1124.94</ele>
        <time>2018-02-20T10:57:54Z</time>
      </trkpt>
      <trkpt lat="48.03052" lon="6.93953">
        <ele>1127.25</ele>
        <time>2018-02-20T10:58:16Z</time>
      </trkpt>
      <trkpt lat="48.03064" lon="6.93945">
        <ele>1127.75</ele>
        <time>2018-02-20T10:58:33Z</time>
      </trkpt>
      <trkpt lat="48.03084" lon="6.93939">
        <ele>1127.32</ele>
        <time>2018-02-20T10:58:56Z</time>
      </trkpt>
      <trkpt lat="48.03091" lon="6.93939">
        <ele>1130.33</ele>
        <time>2018-02-20T10:59:05Z</time>
      </trkpt>
      <trkpt lat="48.03108" lon="6.93944">
        <ele>1129.91</ele>
        <time>2018-02-20T10:59:23Z</time>
      </trkpt>
      <trkpt lat="48.03124" lon="6.93954">
        <ele>1131.87</ele>
        <time>2018-02-20T10:59:44Z</time>
      </trkpt>
      <trkpt lat="48.0313" lon="6.93954">
        <ele>1132.67</ele>
        <time>2018-02-20T10:59:57Z</time>
      </trkpt>
      <trkpt lat="48.03132" lon="6.93953">
        <ele>1132.2</ele>
        <time>2018-02-20T11:00:00Z</time>
      </trkpt>
      <trkpt lat="48.03145" lon="6.9396">
        <ele>1133.75</ele>
        <time>2018-02-20T11:00:17Z</time>
      </trkpt>
      <trkpt lat="48.03159" lon="6.93976">
        <ele>1135.51</ele>
        <time>2018-02-20T11:00:41Z</time>
      </trkpt>
      <trkpt lat="48.0316" lon="6.93977">
        <ele>1134.81</ele>
        <time>2018-02-20T11:00:43Z</time>
      </trkpt>
      <trkpt lat="48.03177" lon="6.93992">
        <ele>1136.67</ele>
        <time>2018-02-20T11:01:06Z</time>
      </trkpt>
      <trkpt lat="48.03185" lon="6.94">
        <ele>1137.86</ele>
        <time>2018-02-20T11:01:17Z</time>
      </trkpt>
      <trkpt lat="48.03196" lon="6.94023">
        <ele>1138.05</ele>
        <time>2018-02-20T11:01:37Z</time>
      </trkpt>
      <trkpt lat="48.03192" lon="6.9404">
        <ele>1139.28</ele>
        <time>2018-02-20T11:01:55Z</time>
      </trkpt>
      <trkpt lat="48.03183" lon="6.94045">
        <ele>1140.45</ele>
        <time>2018-02-20T11:02:19Z</time>
      </trkpt>
      <trkpt lat="48.03181" lon="6.94046">
        <ele>1141.52</ele>
        <time>2018-02-20T11:02:21Z</time>
      </trkpt>
      <trkpt lat="48.03179" lon="6.94049">
        <ele>1140.16</ele>
        <time>2018-02-20T11:02:23Z</time>
      </trkpt>
      <trkpt lat="48.03178" lon="6.9405">
        <ele>1141.69</ele>
        <time>2018-02-20T11:02:25Z</time>
      </trkpt>
      <trkpt lat="48.03171" lon="6.94062">
        <ele>1144.75</ele>
        <time>2018-02-20T11:02:37Z</time>
      </trkpt>
      <trkpt lat="48.03161" lon="6.94083">
        <ele>1144.15</ele>
        <time>2018-02-20T11:03:01Z</time>
      </trkpt>
      <trkpt lat="48.0316" lon="6.94083">
        <ele>1147.28</ele>
        <time>2018-02-20T11:03:02Z</time>
      </trkpt>
      <trkpt lat="48.03146" lon="6.94098">
        <ele>1148.78</ele>
        <time>2018-02-20T11:03:25Z</time>
      </trkpt>
      <trkpt lat="48.03135" lon="6.94112">
        <ele>1149.78</ele>
        <time>2018-02-20T11:03:43Z</time>
      </trkpt>
      <trkpt lat="48.03133" lon="6.94114">
        <ele>1149.28</ele>
        <time>2018-02-20T11:03:48Z</time>
      </trkpt>
      <trkpt lat="48.03132" lon="6.94116">
        <ele>1148.57</ele>
        <time>2018-02-20T11:03:50Z</time>
      </trkpt>
      <trkpt lat="48.03126" lon="6.94124">
        <ele>1149.82</ele>
        <time>2018-02-20T11:03:58Z</time>
      </trkpt>
      <trkpt lat="48.03112" lon="6.94153">
        <ele>1150.76</ele>
        <time>2018-02-20T11:04:20Z</time>
      </trkpt>
      <trkpt lat="48.03105" lon="6.94178">
        <ele>1152.93</ele>
        <time>2018-02-20T11:04:41Z</time>
      </trkpt>
      <trkpt lat="48.03103" lon="6.94186">
        <ele>1153.24</ele>
        <time>2018-02-20T11:04:50Z</time>
      </trkpt>
      <trkpt lat="48.03098" lon="6.9421">
        <ele>1155.72</ele>
        <time>2018-02-20T11:05:07Z</time>
      </trkpt>
      <trkpt lat="48.03098" lon="6.94212">
        <ele>1154.85</ele>
        <time>2018-02-20T11:05:08Z</time>
      </trkpt>
      <trkpt lat="48.03096" lon="6.94236">
        <ele>1158.45</ele>
        <time>2018-02-20T11:05:27Z</time>
      </trkpt>
      <trkpt lat="48.03094" lon="6.94238">
        <ele>1155.8</ele>
        <time>2018-02-20T11:05:28Z</time>
      </trkpt>
      <trkpt lat="48.03092" lon="6.94223">
        <ele>1156.06</ele>
        <time>2018-02-20T11:05:59Z</time>
      </trkpt>
      <trkpt lat="48.03094" lon="6.94226">
        <ele>1155.61</ele>
        <time>2018-02-20T11:06:45Z</time>
      </trkpt>
      <trkpt lat="48.03102" lon="6.94243">
        <ele>1154.13</ele>
        <time>2018-02-20T11:07:15Z</time>
      </trkpt>
      <trkpt lat="48.03108" lon="6.94258">
        <ele>1158</ele>
        <time>2018-02-20T11:07:25Z</time>
      </trkpt>
      <trkpt lat="48.03111" lon="6.94265">
        <ele>1155.96</ele>
        <time>2018-02-20T11:07:30Z</time>
      </trkpt>
      <trkpt lat="48.03114" lon="6.94282">
        <ele>1159.59</ele>
        <time>2018-02-20T11:07:47Z</time>
      </trkpt>
      <trkpt lat="48.03114" lon="6.94283">
        <ele>1158.63</ele>
        <time>2018-02-20T11:07:48Z</time>
      </trkpt>
      <trkpt lat="48.03115" lon="6.94313">
        <ele>1159.85</ele>
        <time>2018-02-20T11:08:08Z</time>
      </trkpt>
      <trkpt lat="48.03115" lon="6.94326">
        <ele>1162.01</ele>
        <time>2018-02-20T11:08:20Z</time>
      </trkpt>
      <trkpt lat="48.03114" lon="6.94353">
        <ele>1163.44</ele>
        <time>2018-02-20T11:08:44Z</time>
      </trkpt>
      <trkpt lat="48.03115" lon="6.94372">
        <ele>1165.56</ele>
        <time>2018-02-20T11:09:07Z</time>
      </trkpt>
      <trkpt lat="48.03116" lon="6.94392">
        <ele>1166.34</ele>
        <time>2018-02-20T11:09:24Z</time>
      </trkpt>
      <trkpt lat="48.03117" lon="6.94417">
        <ele>1166.63</ele>
        <time>2018-02-20T11:09:43Z</time>
      </trkpt>
      <trkpt lat="48.03117" lon="6.94431">
        <ele>1168.51</ele>
        <time>2018-02-20T11:09:51Z</time>
      </trkpt>
      <trkpt lat="48.03121" lon="6.94457">
        <ele>1168.88</ele>
        <time>2018-02-20T11:10:14Z</time>
      </trkpt>
      <trkpt lat="48.03129" lon="6.94469">
        <ele>1169.07</ele>
        <time>2018-02-20T11:10:33Z</time>
      </trkpt>
      <trkpt lat="48.03139" lon="6.94483">
        <ele>1171.09</ele>
        <time>2018-02-20T11:10:49Z</time>
      </trkpt>
      <trkpt lat="48.03138" lon="6.945">
        <ele>1170.09</ele>
        <time>2018-02-20T11:11:00Z</time>
      </trkpt>
      <trkpt lat="48.03139" lon="6.94514">
        <ele>1171.25</ele>
        <time>2018-02-20T11:11:14Z</time>
      </trkpt>
      <trkpt lat="48.03141" lon="6.94532">
        <ele>1171.88</ele>
        <time>2018-02-20T11:11:24Z</time>
      </trkpt>
      <trkpt lat="48.03149" lon="6.94556">
        <ele>1172.59</ele>
        <time>2018-02-20T11:11:43Z</time>
      </trkpt>
      <trkpt lat="48.03156" lon="6.94564">
        <ele>1171.78</ele>
        <time>2018-02-20T11:11:51Z</time>
      </trkpt>
      <trkpt lat="48.03163" lon="6.94573">
        <ele>1173.24</ele>
        <time>2018-02-20T11:12:02Z</time>
      </trkpt>
      <trkpt lat="48.03178" lon="6.94585">
        <ele>1173.89</ele>
        <time>2018-02-20T11:12:19Z</time>
      </trkpt>
      <trkpt lat="48.03191" lon="6.94588">
        <ele>1174.88</ele>
        <time>2018-02-20T11:12:33Z</time>
      </trkpt>
      <trkpt lat="48.03203" lon="6.94597">
        <ele>1174.3</ele>
        <time>2018-02-20T11:12:44Z</time>
      </trkpt>
      <trkpt lat="48.03212" lon="6.94605">
        <ele>1173.67</ele>
        <time>2018-02-20T11:12:55Z</time>
      </trkpt>
      <trkpt lat="48.03215" lon="6.94607">
        <ele>1175.17</ele>
        <time>2018-02-20T11:12:58Z</time>
      </trkpt>
      <trkpt lat="48.03234" lon="6.94622">
        <ele>1175.28</ele>
        <time>2018-02-20T11:13:17Z</time>
      </trkpt>
      <trkpt lat="48.03246" lon="6.94633">
        <ele>1177.18</ele>
        <time>2018-02-20T11:13:32Z</time>
      </trkpt>
      <trkpt lat="48.03248" lon="6.94635">
        <ele>1176.69</ele>
        <time>2018-02-20T11:13:39Z</time>
      </trkpt>
      <trkpt lat="48.0325" lon="6.94637">
        <ele>1177.76</ele>
        <time>2018-02-20T11:13:41Z</time>
      </trkpt>
      <trkpt lat="48.03254" lon="6.94641">
        <ele>1177.23</ele>
        <time>2018-02-20T11:13:45Z</time>
      </trkpt>
      <trkpt lat="48.03267" lon="6.94663">
        <ele>1176.95</ele>
        <time>2018-02-20T11:14:03Z</time>
      </trkpt>
      <trkpt lat="48.03269" lon="6.94664">
        <ele>1177.93</ele>
        <time>2018-02-20T11:14:20Z</time>
      </trkpt>
      <trkpt lat="48.0327" lon="6.94662">
        <ele>1177.44</ele>
        <time>2018-02-20T11:14:46Z</time>
      </trkpt>
      <trkpt lat="48.0327" lon="6.94662">
        <ele>1177.89</ele>
        <time>2018-02-20T11:15:15Z</time>
      </trkpt>
      <trkpt lat="48.0327" lon="6.94661">
        <ele>1177.57</ele>
        <time>2018-02-20T11:15:53Z</time>
      </trkpt>
      <trkpt lat="48.03269" lon="6.94662">
        <ele>1177.05</ele>
        <time>2018-02-20T11:16:25Z</time>
      </trkpt>
      <trkpt lat="48.0327" lon="6.94663">
        <ele>1177.26</ele>
        <time>2018-02-20T11:16:57Z</time>
      </trkpt>
      <trkpt lat="48.03273" lon="6.94667">
        <ele>1178.08</ele>
        <time>2018-02-20T11:17:25Z</time>
      </trkpt>
      <trkpt lat="48.03284" lon="6.94667">
        <ele>1177.42</ele>
        <time>2018-02-20T11:17:41Z</time>
      </trkpt>
      <trkpt lat="48.03288" lon="6.94671">
        <ele>1177.96</ele>
        <time>2018-02-20T11:18:00Z</time>
      </trkpt>
      <trkpt lat="48.03289" lon="6.94671">
        <ele>1177.93</ele>
        <time>2018-02-20T11:18:36Z</time>
      </trkpt>
      <trkpt lat="48.03289" lon="6.94672">
        <ele>1177.34</ele>
        <time>2018-02-20T11:19:12Z</time>
      </trkpt>
      <trkpt lat="48.03288" lon="6.94671">
        <ele>1176.68</ele>
        <time>2018-02-20T11:19:42Z</time>
      </trkpt>
      <trkpt lat="48.03288" lon="6.94672">
        <ele>1176.65</ele>
        <time>2018-02-20T11:20:06Z</time>
      </trkpt>
      <trkpt lat="48.03288" lon="6.94671">
        <ele>1177.04</ele>
        <time>2018-02-20T11:20:30Z</time>
      </trkpt>
      <trkpt lat="48.03285" lon="6.9467">
        <ele>1175.56</ele>
        <time>2018-02-20T11:20:54Z</time>
      </trkpt>
      <trkpt lat="48.03283" lon="6.94668">
        <ele>1175.62</ele>
        <time>2018-02-20T11:21:20Z</time>
      </trkpt>
      <trkpt lat="48.03283" lon="6.94668">
        <ele>1175.12</ele>
        <time>2018-02-20T11:21:55Z</time>
      </trkpt>
      <trkpt lat="48.03284" lon="6.94668">
        <ele>1174.73</ele>
        <time>2018-02-20T11:22:27Z</time>
      </trkpt>
      <trkpt lat="48.03284" lon="6.94671">
        <ele>1174.79</ele>
        <time>2018-02-20T11:22:56Z</time>
      </trkpt>
      <trkpt lat="48.03283" lon="6.94671">
        <ele>1174.75</ele>
        <time>2018-02-20T11:23:26Z</time>
      </trkpt>
      <trkpt lat="48.03282" lon="6.9467">
        <ele>1174.54</ele>
        <time>2018-02-20T11:23:57Z</time>
      </trkpt>
      <trkpt lat="48.03284" lon="6.9467">
        <ele>1174.52</ele>
        <time>2018-02-20T11:24:24Z</time>
      </trkpt>
      <trkpt lat="48.03295" lon="6.9467">
        <ele>1175.12</ele>
        <time>2018-02-20T11:24:47Z</time>
      </trkpt>
      <trkpt lat="48.03307" lon="6.94668">
        <ele>1176.06</ele>
        <time>2018-02-20T11:25:04Z</time>
      </trkpt>
      <trkpt lat="48.0332" lon="6.94657">
        <ele>1176.89</ele>
        <time>2018-02-20T11:25:21Z</time>
      </trkpt>
      <trkpt lat="48.03325" lon="6.94657">
        <ele>1176.55</ele>
        <time>2018-02-20T11:25:38Z</time>
      </trkpt>
      <trkpt lat="48.0334" lon="6.94654">
        <ele>1177.27</ele>
        <time>2018-02-20T11:25:58Z</time>
      </trkpt>
      <trkpt lat="48.03351" lon="6.94651">
        <ele>1176.27</ele>
        <time>2018-02-20T11:26:09Z</time>
      </trkpt>
      <trkpt lat="48.03367" lon="6.94642">
        <ele>1177.57</ele>
        <time>2018-02-20T11:26:25Z</time>
      </trkpt>
      <trkpt lat="48.03379" lon="6.94636">
        <ele>1176.53</ele>
        <time>2018-02-20T11:26:39Z</time>
      </trkpt>
      <trkpt lat="48.03387" lon="6.94627">
        <ele>1175.66</ele>
        <time>2018-02-20T11:26:47Z</time>
      </trkpt>
      <trkpt lat="48.03386" lon="6.94622">
        <ele>1175.57</ele>
        <time>2018-02-20T11:26:51Z</time>
      </trkpt>
      <trkpt lat="48.034" lon="6.94614">
        <ele>1174.83</ele>
        <time>2018-02-20T11:27:06Z</time>
      </trkpt>
      <trkpt lat="48.03418" lon="6.94603">
        <ele>1172.17</ele>
        <time>2018-02-20T11:27:25Z</time>
      </trkpt>
      <trkpt lat="48.03423" lon="6.94601">
        <ele>1172.56</ele>
        <time>2018-02-20T11:27:29Z</time>
      </trkpt>
      <trkpt lat="48.03429" lon="6.94598">
        <ele>1172.06</ele>
        <time>2018-02-20T11:27:34Z</time>
      </trkpt>
      <trkpt lat="48.03431" lon="6.94596">
        <ele>1173.27</ele>
        <time>2018-02-20T11:27:36Z</time>
      </trkpt>
      <trkpt lat="48.03446" lon="6.94579">
        <ele>1171.13</ele>
        <time>2018-02-20T11:27:53Z</time>
      </trkpt>
      <trkpt lat="48.03458" lon="6.94571">
        <ele>1169.89</ele>
        <time>2018-02-20T11:28:03Z</time>
      </trkpt>
      <trkpt lat="48.03479" lon="6.94554">
        <ele>1167.89</ele>
        <time>2018-02-20T11:28:24Z</time>
      </trkpt>
      <trkpt lat="48.03504" lon="6.94539">
        <ele>1165.22</ele>
        <time>2018-02-20T11:28:45Z</time>
      </trkpt>
      <trkpt lat="48.03521" lon="6.94527">
        <ele>1163.06</ele>
        <time>2018-02-20T11:29:02Z</time>
      </trkpt>
      <trkpt lat="48.03526" lon="6.9452">
        <ele>1162.16</ele>
        <time>2018-02-20T11:29:17Z</time>
      </trkpt>
      <trkpt lat="48.0353" lon="6.94517">
        <ele>1161.4</ele>
        <time>2018-02-20T11:29:26Z</time>
      </trkpt>
      <trkpt lat="48.03536" lon="6.94514">
        <ele>1160.83</ele>
        <time>2018-02-20T11:29:31Z</time>
      </trkpt>
      <trkpt lat="48.03557" lon="6.94501">
        <ele>1158.42</ele>
        <time>2018-02-20T11:29:50Z</time>
      </trkpt>
      <trkpt lat="48.03573" lon="6.94491">
        <ele>1156.82</ele>
        <time>2018-02-20T11:30:05Z</time>
      </trkpt>
      <trkpt lat="48.03582" lon="6.94491">
        <ele>1157.11</ele>
        <time>2018-02-20T11:30:17Z</time>
      </trkpt>
      <trkpt lat="48.03586" lon="6.94492">
        <ele>1157.21</ele>
        <time>2018-02-20T11:30:21Z</time>
      </trkpt>
      <trkpt lat="48.03594" lon="6.94488">
        <ele>1156.32</ele>
        <time>2018-02-20T11:30:35Z</time>
      </trkpt>
      <trkpt lat="48.03592" lon="6.94486">
        <ele>1147.93</ele>
        <time>2018-02-20T11:30:51Z</time>
      </trkpt>
      <trkpt lat="48.03592" lon="6.94486">
        <ele>1153.18</ele>
        <time>2018-02-20T11:30:52Z</time>
      </trkpt>
      <trkpt lat="48.03592" lon="6.94485">
        <ele>1163.05</ele>
        <time>2018-02-20T11:30:54Z</time>
      </trkpt>
      <trkpt lat="48.03592" lon="6.94485">
        <ele>1162.92</ele>
        <time>2018-02-20T11:30:55Z</time>
      </trkpt>
      <trkpt lat="48.03592" lon="6.94485">
        <ele>1156.5</ele>
        <time>2018-02-20T11:30:56Z</time>
      </trkpt>
      <trkpt lat="48.03592" lon="6.94487">
        <ele>1155.52</ele>
        <time>2018-02-20T11:31:01Z</time>
      </trkpt>
      <trkpt lat="48.03592" lon="6.94487">
        <ele>1146.82</ele>
        <time>2018-02-20T11:31:03Z</time>
      </trkpt>
      <trkpt lat="48.03592" lon="6.94487">
        <ele>1161.53</ele>
        <time>2018-02-20T11:31:04Z</time>
      </trkpt>
      <trkpt lat="48.03592" lon="6.94487">
        <ele>1151.16</ele>
        <time>2018-02-20T11:31:05Z</time>
      </trkpt>
      <trkpt lat="48.03591" lon="6.94487">
        <ele>1160.42</ele>
        <time>2018-02-20T11:31:06Z</time>
      </trkpt>
      <trkpt lat="48.03591" lon="6.94487">
        <ele>1156.74</ele>
        <time>2018-02-20T11:31:07Z</time>
      </trkpt>
      <trkpt lat="48.03591" lon="6.94486">
        <ele>1155.97</ele>
        <time>2018-02-20T11:31:13Z</time>
      </trkpt>
      <trkpt lat="48.03585" lon="6.94481">
        <ele>1156.55</ele>
        <time>2018-02-20T11:31:53Z</time>
      </trkpt>
      <trkpt lat="48.0359" lon="6.94481">
        <ele>1157.59</ele>
        <time>2018-02-20T11:32:39Z</time>
      </trkpt>
      <trkpt lat="48.0359" lon="6.94481">
        <ele>1157.59</ele>
        <time>2018-02-20T11:32:40Z</time>
      </trkpt>
      <trkpt lat="48.03601" lon="6.94485">
        <ele>1181.66</ele>
        <time>2018-02-20T12:14:40Z</time>
      </trkpt>
      <trkpt lat="48.036" lon="6.94489">
        <ele>1186.81</ele>
        <time>2018-02-20T12:14:41Z</time>
      </trkpt>
      <trkpt lat="48.03588" lon="6.94495">
        <ele>1183.55</ele>
        <time>2018-02-20T12:14:53Z</time>
      </trkpt>
      <trkpt lat="48.03588" lon="6.94495">
        <ele>1182.24</ele>
        <time>2018-02-20T12:14:56Z</time>
      </trkpt>
      <trkpt lat="48.03588" lon="6.94495">
        <ele>1180.31</ele>
        <time>2018-02-20T12:15:01Z</time>
      </trkpt>
      <trkpt lat="48.03587" lon="6.94495">
        <ele>1177.07</ele>
        <time>2018-02-20T12:15:13Z</time>
      </trkpt>
      <trkpt lat="48.03587" lon="6.94496">
        <ele>1174</ele>
        <time>2018-02-20T12:15:33Z</time>
      </trkpt>
      <trkpt lat="48.03588" lon="6.94496">
        <ele>1170.94</ele>
        <time>2018-02-20T12:15:47Z</time>
      </trkpt>
      <trkpt lat="48.03589" lon="6.94496">
        <ele>1168.41</ele>
        <time>2018-02-20T12:16:15Z</time>
      </trkpt>
      <trkpt lat="48.03588" lon="6.94494">
        <ele>1167.1</ele>
        <time>2018-02-20T12:16:37Z</time>
      </trkpt>
      <trkpt lat="48.03591" lon="6.94496">
        <ele>1166.26</ele>
        <time>2018-02-20T12:16:56Z</time>
      </trkpt>
      <trkpt lat="48.03591" lon="6.94496">
        <ele>1164.71</ele>
        <time>2018-02-20T12:16:58Z</time>
      </trkpt>
      <trkpt lat="48.03591" lon="6.94496">
        <ele>1168.95</ele>
        <time>2018-02-20T12:16:59Z</time>
      </trkpt>
      <trkpt lat="48.03591" lon="6.94496">
        <ele>1166.99</ele>
        <time>2018-02-20T12:17:00Z</time>
      </trkpt>
      <trkpt lat="48.03599" lon="6.94492">
        <ele>1165.81</ele>
        <time>2018-02-20T12:17:18Z</time>
      </trkpt>
      <trkpt lat="48.03604" lon="6.94487">
        <ele>1165.84</ele>
        <time>2018-02-20T12:17:34Z</time>
      </trkpt>
      <trkpt lat="48.03602" lon="6.94488">
        <ele>1165.68</ele>
        <time>2018-02-20T12:18:06Z</time>
      </trkpt>
      <trkpt lat="48.03601" lon="6.94492">
        <ele>1165.89</ele>
        <time>2018-02-20T12:18:34Z</time>
      </trkpt>
      <trkpt lat="48.03604" lon="6.94488">
        <ele>1164.86</ele>
        <time>2018-02-20T12:18:38Z</time>
      </trkpt>
      <trkpt lat="48.03609" lon="6.94482">
        <ele>1164.12</ele>
        <time>2018-02-20T12:18:44Z</time>
      </trkpt>
      <trkpt lat="48.03623" lon="6.94469">
        <ele>1162.96</ele>
        <time>2018-02-20T12:18:59Z</time>
      </trkpt>
      <trkpt lat="48.03627" lon="6.94464">
        <ele>1162.56</ele>
        <time>2018-02-20T12:19:03Z</time>
      </trkpt>
      <trkpt lat="48.03643" lon="6.94447">
        <ele>1162.27</ele>
        <time>2018-02-20T12:19:20Z</time>
      </trkpt>
      <trkpt lat="48.03654" lon="6.94431">
        <ele>1159.51</ele>
        <time>2018-02-20T12:19:33Z</time>
      </trkpt>
      <trkpt lat="48.03661" lon="6.94422">
        <ele>1158.33</ele>
        <time>2018-02-20T12:19:43Z</time>
      </trkpt>
      <trkpt lat="48.03671" lon="6.94408">
        <ele>1157.36</ele>
        <time>2018-02-20T12:19:57Z</time>
      </trkpt>
      <trkpt lat="48.03668" lon="6.94406">
        <ele>1157.04</ele>
        <time>2018-02-20T12:20:15Z</time>
      </trkpt>
      <trkpt lat="48.03673" lon="6.94402">
        <ele>1156.97</ele>
        <time>2018-02-20T12:20:24Z</time>
      </trkpt>
      <trkpt lat="48.03677" lon="6.94394">
        <ele>1156.99</ele>
        <time>2018-02-20T12:20:32Z</time>
      </trkpt>
      <trkpt lat="48.03685" lon="6.9439">
        <ele>1155.17</ele>
        <time>2018-02-20T12:20:50Z</time>
      </trkpt>
      <trkpt lat="48.03681" lon="6.94392">
        <ele>1155.76</ele>
        <time>2018-02-20T12:21:21Z</time>
      </trkpt>
      <trkpt lat="48.03682" lon="6.94379">
        <ele>1152.59</ele>
        <time>2018-02-20T12:21:42Z</time>
      </trkpt>
      <trkpt lat="48.03678" lon="6.94369">
        <ele>1150.4</ele>
        <time>2018-02-20T12:21:50Z</time>
      </trkpt>
      <trkpt lat="48.03672" lon="6.9435">
        <ele>1147.86</ele>
        <time>2018-02-20T12:22:08Z</time>
      </trkpt>
      <trkpt lat="48.0367" lon="6.94335">
        <ele>1146.48</ele>
        <time>2018-02-20T12:22:32Z</time>
      </trkpt>
      <trkpt lat="48.03674" lon="6.94323">
        <ele>1144.39</ele>
        <time>2018-02-20T12:22:52Z</time>
      </trkpt>
      <trkpt lat="48.03678" lon="6.94303">
        <ele>1141.38</ele>
        <time>2018-02-20T12:23:09Z</time>
      </trkpt>
      <trkpt lat="48.03685" lon="6.94284">
        <ele>1139.73</ele>
        <time>2018-02-20T12:23:30Z</time>
      </trkpt>
      <trkpt lat="48.03686" lon="6.94273">
        <ele>1136.65</ele>
        <time>2018-02-20T12:23:39Z</time>
      </trkpt>
      <trkpt lat="48.03687" lon="6.94272">
        <ele>1136.68</ele>
        <time>2018-02-20T12:23:40Z</time>
      </trkpt>
      <trkpt lat="48.03689" lon="6.94267">
        <ele>1137.13</ele>
        <time>2018-02-20T12:23:45Z</time>
      </trkpt>
      <trkpt lat="48.0369" lon="6.94262">
        <ele>1136.23</ele>
        <time>2018-02-20T12:23:49Z</time>
      </trkpt>
      <trkpt lat="48.03691" lon="6.94254">
        <ele>1135.62</ele>
        <time>2018-02-20T12:23:54Z</time>
      </trkpt>
      <trkpt lat="48.03699" lon="6.94225">
        <ele>1132.65</ele>
        <time>2018-02-20T12:24:15Z</time>
      </trkpt>
      <trkpt lat="48.037" lon="6.9422">
        <ele>1132.21</ele>
        <time>2018-02-20T12:24:20Z</time>
      </trkpt>
      <trkpt lat="48.03702" lon="6.94202">
        <ele>1129.18</ele>
        <time>2018-02-20T12:24:33Z</time>
      </trkpt>
      <trkpt lat="48.03704" lon="6.94192">
        <ele>1127.45</ele>
        <time>2018-02-20T12:24:42Z</time>
      </trkpt>
      <trkpt lat="48.03715" lon="6.94166">
        <ele>1124.81</ele>
        <time>2018-02-20T12:25:04Z</time>
      </trkpt>
      <trkpt lat="48.03728" lon="6.94141">
        <ele>1122</ele>
        <time>2018-02-20T12:25:24Z</time>
      </trkpt>
      <trkpt lat="48.03741" lon="6.94124">
        <ele>1120.92</ele>
        <time>2018-02-20T12:25:42Z</time>
      </trkpt>
      <trkpt lat="48.0375" lon="6.94109">
        <ele>1117.84</ele>
        <time>2018-02-20T12:25:54Z</time>
      </trkpt>
      <trkpt lat="48.03762" lon="6.94085">
        <ele>1115.78</ele>
        <time>2018-02-20T12:26:16Z</time>
      </trkpt>
      <trkpt lat="48.03761" lon="6.9408">
        <ele>1115.53</ele>
        <time>2018-02-20T12:26:38Z</time>
      </trkpt>
      <trkpt lat="48.03761" lon="6.94082">
        <ele>1115.44</ele>
        <time>2018-02-20T12:27:06Z</time>
      </trkpt>
      <trkpt lat="48.03762" lon="6.9408">
        <ele>1116.06</ele>
        <time>2018-02-20T12:27:34Z</time>
      </trkpt>
      <trkpt lat="48.03772" lon="6.94062">
        <ele>1113.27</ele>
        <time>2018-02-20T12:27:57Z</time>
      </trkpt>
      <trkpt lat="48.03791" lon="6.94036">
        <ele>1111.46</ele>
        <time>2018-02-20T12:28:23Z</time>
      </trkpt>
      <trkpt lat="48.03799" lon="6.94023">
        <ele>1109.49</ele>
        <time>2018-02-20T12:28:43Z</time>
      </trkpt>
      <trkpt lat="48.03812" lon="6.94012">
        <ele>1107.37</ele>
        <time>2018-02-20T12:29:04Z</time>
      </trkpt>
      <trkpt lat="48.03824" lon="6.94006">
        <ele>1105.7</ele>
        <time>2018-02-20T12:29:18Z</time>
      </trkpt>
      <trkpt lat="48.03837" lon="6.93998">
        <ele>1103.5</ele>
        <time>2018-02-20T12:29:31Z</time>
      </trkpt>
      <trkpt lat="48.03856" lon="6.93986">
        <ele>1101.3</ele>
        <time>2018-02-20T12:29:54Z</time>
      </trkpt>
      <trkpt lat="48.03857" lon="6.93983">
        <ele>1101.3</ele>
        <time>2018-02-20T12:30:03Z</time>
      </trkpt>
      <trkpt lat="48.0387" lon="6.93973">
        <ele>1099.09</ele>
        <time>2018-02-20T12:30:26Z</time>
      </trkpt>
      <trkpt lat="48.03883" lon="6.9396">
        <ele>1096.74</ele>
        <time>2018-02-20T12:30:40Z</time>
      </trkpt>
      <trkpt lat="48.03894" lon="6.93941">
        <ele>1094.71</ele>
        <time>2018-02-20T12:30:59Z</time>
      </trkpt>
      <trkpt lat="48.03894" lon="6.93941">
        <ele>1094.84</ele>
        <time>2018-02-20T12:31:00Z</time>
      </trkpt>
      <trkpt lat="48.03903" lon="6.93932">
        <ele>1092.57</ele>
        <time>2018-02-20T12:31:12Z</time>
      </trkpt>
      <trkpt lat="48.03906" lon="6.93931">
        <ele>1092.48</ele>
        <time>2018-02-20T12:31:16Z</time>
      </trkpt>
      <trkpt lat="48.03919" lon="6.93924">
        <ele>1089.99</ele>
        <time>2018-02-20T12:31:31Z</time>
      </trkpt>
      <trkpt lat="48.03922" lon="6.93921">
        <ele>1089.17</ele>
        <time>2018-02-20T12:31:38Z</time>
      </trkpt>
      <trkpt lat="48.0393" lon="6.93915">
        <ele>1087.88</ele>
        <time>2018-02-20T12:31:46Z</time>
      </trkpt>
      <trkpt lat="48.03933" lon="6.93914">
        <ele>1088</ele>
        <time>2018-02-20T12:31:49Z</time>
      </trkpt>
      <trkpt lat="48.0395" lon="6.93902">
        <ele>1086.26</ele>
        <time>2018-02-20T12:32:01Z</time>
      </trkpt>
      <trkpt lat="48.03956" lon="6.93897">
        <ele>1084.86</ele>
        <time>2018-02-20T12:32:08Z</time>
      </trkpt>
      <trkpt lat="48.03974" lon="6.93885">
        <ele>1083.12</ele>
        <time>2018-02-20T12:32:28Z</time>
      </trkpt>
      <trkpt lat="48.0399" lon="6.93876">
        <ele>1079.77</ele>
        <time>2018-02-20T12:32:46Z</time>
      </trkpt>
      <trkpt lat="48.04006" lon="6.93877">
        <ele>1077.77</ele>
        <time>2018-02-20T12:33:05Z</time>
      </trkpt>
      <trkpt lat="48.04006" lon="6.93882">
        <ele>1081.04</ele>
        <time>2018-02-20T12:33:23Z</time>
      </trkpt>
      <trkpt lat="48.04004" lon="6.93885">
        <ele>1080.77</ele>
        <time>2018-02-20T12:33:48Z</time>
      </trkpt>
      <trkpt lat="48.04012" lon="6.93884">
        <ele>1078.55</ele>
        <time>2018-02-20T12:34:07Z</time>
      </trkpt>
      <trkpt lat="48.04019" lon="6.93881">
        <ele>1076.87</ele>
        <time>2018-02-20T12:34:23Z</time>
      </trkpt>
      <trkpt lat="48.04032" lon="6.93898">
        <ele>1073.32</ele>
        <time>2018-02-20T12:34:45Z</time>
      </trkpt>
      <trkpt lat="48.04044" lon="6.93918">
        <ele>1071.03</ele>
        <time>2018-02-20T12:35:04Z</time>
      </trkpt>
      <trkpt lat="48.04061" lon="6.93923">
        <ele>1067.96</ele>
        <time>2018-02-20T12:35:17Z</time>
      </trkpt>
      <trkpt lat="48.04072" lon="6.93913">
        <ele>1065.34</ele>
        <time>2018-02-20T12:35:31Z</time>
      </trkpt>
      <trkpt lat="48.04072" lon="6.93888">
        <ele>1060.9</ele>
        <time>2018-02-20T12:35:53Z</time>
      </trkpt>
      <trkpt lat="48.04072" lon="6.93879">
        <ele>1061.28</ele>
        <time>2018-02-20T12:35:59Z</time>
      </trkpt>
      <trkpt lat="48.04069" lon="6.93874">
        <ele>1061.28</ele>
        <time>2018-02-20T12:36:24Z</time>
      </trkpt>
      <trkpt lat="48.04072" lon="6.93855">
        <ele>1059.87</ele>
        <time>2018-02-20T12:36:43Z</time>
      </trkpt>
      <trkpt lat="48.04062" lon="6.93837">
        <ele>1058.33</ele>
        <time>2018-02-20T12:37:01Z</time>
      </trkpt>
      <trkpt lat="48.04057" lon="6.93828">
        <ele>1056.68</ele>
        <time>2018-02-20T12:37:08Z</time>
      </trkpt>
      <trkpt lat="48.04045" lon="6.93803">
        <ele>1054.03</ele>
        <time>2018-02-20T12:37:27Z</time>
      </trkpt>
      <trkpt lat="48.04037" lon="6.93788">
        <ele>1051.82</ele>
        <time>2018-02-20T12:37:41Z</time>
      </trkpt>
      <trkpt lat="48.04018" lon="6.93766">
        <ele>1049.45</ele>
        <time>2018-02-20T12:38:03Z</time>
      </trkpt>
      <trkpt lat="48.04001" lon="6.93755">
        <ele>1046.37</ele>
        <time>2018-02-20T12:38:21Z</time>
      </trkpt>
      <trkpt lat="48.0398" lon="6.93749">
        <ele>1044.37</ele>
        <time>2018-02-20T12:38:41Z</time>
      </trkpt>
      <trkpt lat="48.03964" lon="6.93749">
        <ele>1042.58</ele>
        <time>2018-02-20T12:39:00Z</time>
      </trkpt>
      <trkpt lat="48.03945" lon="6.93754">
        <ele>1040.62</ele>
        <time>2018-02-20T12:39:21Z</time>
      </trkpt>
      <trkpt lat="48.03928" lon="6.93756">
        <ele>1037.86</ele>
        <time>2018-02-20T12:39:37Z</time>
      </trkpt>
      <trkpt lat="48.03908" lon="6.93744">
        <ele>1034.71</ele>
        <time>2018-02-20T12:40:00Z</time>
      </trkpt>
      <trkpt lat="48.03891" lon="6.93738">
        <ele>1032.13</ele>
        <time>2018-02-20T12:40:20Z</time>
      </trkpt>
      <trkpt lat="48.03871" lon="6.93725">
        <ele>1029.27</ele>
        <time>2018-02-20T12:40:38Z</time>
      </trkpt>
      <trkpt lat="48.03855" lon="6.93729">
        <ele>1025.92</ele>
        <time>2018-02-20T12:40:54Z</time>
      </trkpt>
      <trkpt lat="48.03841" lon="6.93728">
        <ele>1023.84</ele>
        <time>2018-02-20T12:41:12Z</time>
      </trkpt>
      <trkpt lat="48.0383" lon="6.93708">
        <ele>1020.84</ele>
        <time>2018-02-20T12:41:31Z</time>
      </trkpt>
      <trkpt lat="48.03814" lon="6.9369">
        <ele>1018.13</ele>
        <time>2018-02-20T12:41:52Z</time>
      </trkpt>
      <trkpt lat="48.03804" lon="6.93688">
        <ele>1015.4</ele>
        <time>2018-02-20T12:42:05Z</time>
      </trkpt>
      <trkpt lat="48.03787" lon="6.93687">
        <ele>1012.67</ele>
        <time>2018-02-20T12:42:21Z</time>
      </trkpt>
      <trkpt lat="48.03771" lon="6.93679">
        <ele>1010.22</ele>
        <time>2018-02-20T12:42:40Z</time>
      </trkpt>
      <trkpt lat="48.03763" lon="6.9367">
        <ele>1008.73</ele>
        <time>2018-02-20T12:42:50Z</time>
      </trkpt>
      <trkpt lat="48.03753" lon="6.93654">
        <ele>1007.38</ele>
        <time>2018-02-20T12:43:06Z</time>
      </trkpt>
      <trkpt lat="48.03746" lon="6.93639">
        <ele>1005.95</ele>
        <time>2018-02-20T12:43:32Z</time>
      </trkpt>
      <trkpt lat="48.03754" lon="6.93642">
        <ele>1006.68</ele>
        <time>2018-02-20T12:43:46Z</time>
      </trkpt>
      <trkpt lat="48.03755" lon="6.93644">
        <ele>1006.39</ele>
        <time>2018-02-20T12:43:48Z</time>
      </trkpt>
      <trkpt lat="48.03752" lon="6.93633">
        <ele>1005.19</ele>
        <time>2018-02-20T12:44:12Z</time>
      </trkpt>
      <trkpt lat="48.03748" lon="6.93634">
        <ele>1005.49</ele>
        <time>2018-02-20T12:44:35Z</time>
      </trkpt>
      <trkpt lat="48.0375" lon="6.93634">
        <ele>1005.91</ele>
        <time>2018-02-20T12:44:40Z</time>
      </trkpt>
      <trkpt lat="48.03749" lon="6.93635">
        <ele>1005.57</ele>
        <time>2018-02-20T12:44:51Z</time>
      </trkpt>
      <trkpt lat="48.03753" lon="6.93632">
        <ele>1005.57</ele>
        <time>2018-02-20T12:45:03Z</time>
      </trkpt>
      <trkpt lat="48.03753" lon="6.93634">
        <ele>1005.63</ele>
        <time>2018-02-20T12:45:31Z</time>
      </trkpt>
      <trkpt lat="48.03752" lon="6.93634">
        <ele>1005.8</ele>
        <time>2018-02-20T12:45:58Z</time>
      </trkpt>
      <trkpt lat="48.03754" lon="6.93631">
        <ele>1005.55</ele>
        <time>2018-02-20T12:46:18Z</time>
      </trkpt>
      <trkpt lat="48.03751" lon="6.93633">
        <ele>1006.17</ele>
        <time>2018-02-20T12:46:45Z</time>
      </trkpt>
      <trkpt lat="48.03753" lon="6.93619">
        <ele>1003.93</ele>
        <time>2018-02-20T12:47:07Z</time>
      </trkpt>
      <trkpt lat="48.03748" lon="6.93594">
        <ele>1001.46</ele>
        <time>2018-02-20T12:47:25Z</time>
      </trkpt>
      <trkpt lat="48.03747" lon="6.93589">
        <ele>1000.18</ele>
        <time>2018-02-20T12:47:28Z</time>
      </trkpt>
      <trkpt lat="48.03737" lon="6.93562">
        <ele>997.72</ele>
        <time>2018-02-20T12:47:49Z</time>
      </trkpt>
      <trkpt lat="48.03728" lon="6.93537">
        <ele>994.29</ele>
        <time>2018-02-20T12:48:06Z</time>
      </trkpt>
      <trkpt lat="48.03724" lon="6.93505">
        <ele>991.07</ele>
        <time>2018-02-20T12:48:24Z</time>
      </trkpt>
      <trkpt lat="48.03719" lon="6.93482">
        <ele>988.36</ele>
        <time>2018-02-20T12:48:40Z</time>
      </trkpt>
      <trkpt lat="48.03706" lon="6.93455">
        <ele>985.35</ele>
        <time>2018-02-20T12:49:01Z</time>
      </trkpt>
      <trkpt lat="48.03702" lon="6.93449">
        <ele>984.82</ele>
        <time>2018-02-20T12:49:07Z</time>
      </trkpt>
      <trkpt lat="48.03691" lon="6.93431">
        <ele>982.54</ele>
        <time>2018-02-20T12:49:21Z</time>
      </trkpt>
      <trkpt lat="48.03677" lon="6.93408">
        <ele>979.27</ele>
        <time>2018-02-20T12:49:41Z</time>
      </trkpt>
      <trkpt lat="48.03667" lon="6.93384">
        <ele>976.2</ele>
        <time>2018-02-20T12:50:00Z</time>
      </trkpt>
      <trkpt lat="48.0366" lon="6.93372">
        <ele>974.82</ele>
        <time>2018-02-20T12:50:11Z</time>
      </trkpt>
      <trkpt lat="48.03647" lon="6.93345">
        <ele>971.52</ele>
        <time>2018-02-20T12:50:33Z</time>
      </trkpt>
      <trkpt lat="48.03653" lon="6.93336">
        <ele>970.88</ele>
        <time>2018-02-20T12:50:51Z</time>
      </trkpt>
      <trkpt lat="48.03651" lon="6.93344">
        <ele>970.79</ele>
        <time>2018-02-20T12:51:17Z</time>
      </trkpt>
      <trkpt lat="48.03653" lon="6.93344">
        <ele>970.27</ele>
        <time>2018-02-20T12:51:44Z</time>
      </trkpt>
      <trkpt lat="48.03653" lon="6.93343">
        <ele>971.94</ele>
        <time>2018-02-20T12:51:46Z</time>
      </trkpt>
      <trkpt lat="48.03652" lon="6.9334">
        <ele>969.94</ele>
        <time>2018-02-20T12:52:12Z</time>
      </trkpt>
      <trkpt lat="48.03653" lon="6.93338">
        <ele>971.76</ele>
        <time>2018-02-20T12:52:19Z</time>
      </trkpt>
      <trkpt lat="48.03647" lon="6.93343">
        <ele>970.77</ele>
        <time>2018-02-20T12:52:55Z</time>
      </trkpt>
      <trkpt lat="48.03651" lon="6.93345">
        <ele>971.08</ele>
        <time>2018-02-20T12:53:27Z</time>
      </trkpt>
      <trkpt lat="48.03653" lon="6.93343">
        <ele>971.57</ele>
        <time>2018-02-20T12:53:42Z</time>
      </trkpt>
      <trkpt lat="48.03655" lon="6.93341">
        <ele>970.14</ele>
        <time>2018-02-20T12:54:01Z</time>
      </trkpt>
      <trkpt lat="48.03655" lon="6.93344">
        <ele>970.76</ele>
        <time>2018-02-20T12:54:09Z</time>
      </trkpt>
      <trkpt lat="48.03655" lon="6.93343">
        <ele>971.36</ele>
        <time>2018-02-20T12:54:24Z</time>
      </trkpt>
      <trkpt lat="48.03657" lon="6.93353">
        <ele>968.91</ele>
        <time>2018-02-20T12:54:37Z</time>
      </trkpt>
      <trkpt lat="48.0368" lon="6.93367">
        <ele>966.47</ele>
        <time>2018-02-20T12:54:59Z</time>
      </trkpt>
      <trkpt lat="48.03701" lon="6.93372">
        <ele>964.3</ele>
        <time>2018-02-20T12:55:13Z</time>
      </trkpt>
      <trkpt lat="48.03724" lon="6.93381">
        <ele>961.59</ele>
        <time>2018-02-20T12:55:33Z</time>
      </trkpt>
      <trkpt lat="48.03735" lon="6.93401">
        <ele>959.11</ele>
        <time>2018-02-20T12:55:59Z</time>
      </trkpt>
      <trkpt lat="48.03752" lon="6.93411">
        <ele>956.26</ele>
        <time>2018-02-20T12:56:19Z</time>
      </trkpt>
      <trkpt lat="48.03756" lon="6.93415">
        <ele>955.85</ele>
        <time>2018-02-20T12:56:22Z</time>
      </trkpt>
      <trkpt lat="48.0377" lon="6.93421">
        <ele>954.3</ele>
        <time>2018-02-20T12:56:33Z</time>
      </trkpt>
      <trkpt lat="48.03785" lon="6.93429">
        <ele>952.88</ele>
        <time>2018-02-20T12:56:46Z</time>
      </trkpt>
      <trkpt lat="48.03797" lon="6.93437">
        <ele>951.62</ele>
        <time>2018-02-20T12:56:57Z</time>
      </trkpt>
      <trkpt lat="48.03815" lon="6.93445">
        <ele>949.94</ele>
        <time>2018-02-20T12:57:13Z</time>
      </trkpt>
      <trkpt lat="48.03825" lon="6.93452">
        <ele>947.8</ele>
        <time>2018-02-20T12:57:24Z</time>
      </trkpt>
      <trkpt lat="48.0384" lon="6.93451">
        <ele>946.55</ele>
        <time>2018-02-20T12:57:36Z</time>
      </trkpt>
      <trkpt lat="48.03846" lon="6.93462">
        <ele>944.14</ele>
        <time>2018-02-20T12:57:55Z</time>
      </trkpt>
      <trkpt lat="48.03864" lon="6.93463">
        <ele>942.42</ele>
        <time>2018-02-20T12:58:13Z</time>
      </trkpt>
      <trkpt lat="48.03871" lon="6.9346">
        <ele>940.95</ele>
        <time>2018-02-20T12:58:16Z</time>
      </trkpt>
      <trkpt lat="48.03876" lon="6.9346">
        <ele>941.56</ele>
        <time>2018-02-20T12:58:29Z</time>
      </trkpt>
      <trkpt lat="48.03878" lon="6.9346">
        <ele>940.78</ele>
        <time>2018-02-20T12:58:41Z</time>
      </trkpt>
      <trkpt lat="48.03876" lon="6.93461">
        <ele>941.27</ele>
        <time>2018-02-20T12:58:46Z</time>
      </trkpt>
      <trkpt lat="48.03869" lon="6.93464">
        <ele>941.29</ele>
        <time>2018-02-20T12:59:01Z</time>
      </trkpt>
      <trkpt lat="48.03868" lon="6.9347">
        <ele>941.17</ele>
        <time>2018-02-20T12:59:28Z</time>
      </trkpt>
      <trkpt lat="48.03873" lon="6.93465">
        <ele>941.56</ele>
        <time>2018-02-20T12:59:55Z</time>
      </trkpt>
      <trkpt lat="48.03877" lon="6.93463">
        <ele>941.32</ele>
        <time>2018-02-20T13:00:15Z</time>
      </trkpt>
      <trkpt lat="48.03875" lon="6.93464">
        <ele>941.6</ele>
        <time>2018-02-20T13:00:39Z</time>
      </trkpt>
      <trkpt lat="48.03875" lon="6.93466">
        <ele>941.15</ele>
        <time>2018-02-20T13:01:01Z</time>
      </trkpt>
      <trkpt lat="48.03878" lon="6.93465">
        <ele>941.17</ele>
        <time>2018-02-20T13:01:29Z</time>
      </trkpt>
      <trkpt lat="48.03877" lon="6.93466">
        <ele>940.22</ele>
        <time>2018-02-20T13:01:54Z</time>
      </trkpt>
      <trkpt lat="48.03884" lon="6.93461">
        <ele>938.59</ele>
        <time>2018-02-20T13:02:10Z</time>
      </trkpt>
      <trkpt lat="48.03894" lon="6.93456">
        <ele>936.52</ele>
        <time>2018-02-20T13:02:25Z</time>
      </trkpt>
      <trkpt lat="48.03907" lon="6.93448">
        <ele>934.95</ele>
        <time>2018-02-20T13:02:40Z</time>
      </trkpt>
      <trkpt lat="48.03911" lon="6.93447">
        <ele>934.51</ele>
        <time>2018-02-20T13:02:44Z</time>
      </trkpt>
      <trkpt lat="48.0392" lon="6.93449">
        <ele>932.77</ele>
        <time>2018-02-20T13:02:57Z</time>
      </trkpt>
      <trkpt lat="48.03927" lon="6.93446">
        <ele>931.48</ele>
        <time>2018-02-20T13:03:06Z</time>
      </trkpt>
      <trkpt lat="48.03946" lon="6.93448">
        <ele>930.19</ele>
        <time>2018-02-20T13:03:22Z</time>
      </trkpt>
      <trkpt lat="48.03963" lon="6.93442">
        <ele>928.32</ele>
        <time>2018-02-20T13:03:33Z</time>
      </trkpt>
      <trkpt lat="48.03964" lon="6.93443">
        <ele>928.74</ele>
        <time>2018-02-20T13:03:34Z</time>
      </trkpt>
      <trkpt lat="48.03968" lon="6.93442">
        <ele>928.53</ele>
        <time>2018-02-20T13:03:37Z</time>
      </trkpt>
      <trkpt lat="48.03971" lon="6.93442">
        <ele>928.42</ele>
        <time>2018-02-20T13:03:40Z</time>
      </trkpt>
      <trkpt lat="48.0398" lon="6.93439">
        <ele>926.27</ele>
        <time>2018-02-20T13:03:48Z</time>
      </trkpt>
      <trkpt lat="48.03992" lon="6.93437">
        <ele>925.36</ele>
        <time>2018-02-20T13:04:03Z</time>
      </trkpt>
      <trkpt lat="48.04" lon="6.93438">
        <ele>923.73</ele>
        <time>2018-02-20T13:04:13Z</time>
      </trkpt>
      <trkpt lat="48.04015" lon="6.93435">
        <ele>922.85</ele>
        <time>2018-02-20T13:04:25Z</time>
      </trkpt>
      <trkpt lat="48.04017" lon="6.93438">
        <ele>921.49</ele>
        <time>2018-02-20T13:04:30Z</time>
      </trkpt>
      <trkpt lat="48.04023" lon="6.93445">
        <ele>921.34</ele>
        <time>2018-02-20T13:04:41Z</time>
      </trkpt>
      <trkpt lat="48.04036" lon="6.93452">
        <ele>919.93</ele>
        <time>2018-02-20T13:04:53Z</time>
      </trkpt>
      <trkpt lat="48.04057" lon="6.93464">
        <ele>916.19</ele>
        <time>2018-02-20T13:05:14Z</time>
      </trkpt>
      <trkpt lat="48.04063" lon="6.93472">
        <ele>916.12</ele>
        <time>2018-02-20T13:05:25Z</time>
      </trkpt>
      <trkpt lat="48.04069" lon="6.93474">
        <ele>913.87</ele>
        <time>2018-02-20T13:05:42Z</time>
      </trkpt>
      <trkpt lat="48.04082" lon="6.93477">
        <ele>912.45</ele>
        <time>2018-02-20T13:05:53Z</time>
      </trkpt>
      <trkpt lat="48.04097" lon="6.93484">
        <ele>911.73</ele>
        <time>2018-02-20T13:06:05Z</time>
      </trkpt>
      <trkpt lat="48.041" lon="6.93484">
        <ele>911.61</ele>
        <time>2018-02-20T13:06:07Z</time>
      </trkpt>
      <trkpt lat="48.04108" lon="6.93482">
        <ele>910.06</ele>
        <time>2018-02-20T13:06:15Z</time>
      </trkpt>
      <trkpt lat="48.04113" lon="6.93481">
        <ele>909.13</ele>
        <time>2018-02-20T13:06:22Z</time>
      </trkpt>
      <trkpt lat="48.04122" lon="6.9348">
        <ele>908.24</ele>
        <time>2018-02-20T13:06:31Z</time>
      </trkpt>
      <trkpt lat="48.04129" lon="6.9348">
        <ele>906.59</ele>
        <time>2018-02-20T13:06:38Z</time>
      </trkpt>
      <trkpt lat="48.04132" lon="6.9348">
        <ele>907.18</ele>
        <time>2018-02-20T13:06:40Z</time>
      </trkpt>
      <trkpt lat="48.04141" lon="6.93476">
        <ele>906.1</ele>
        <time>2018-02-20T13:06:48Z</time>
      </trkpt>
      <trkpt lat="48.04148" lon="6.93474">
        <ele>904.75</ele>
        <time>2018-02-20T13:06:55Z</time>
      </trkpt>
      <trkpt lat="48.0416" lon="6.93474">
        <ele>903.4</ele>
        <time>2018-02-20T13:07:07Z</time>
      </trkpt>
      <trkpt lat="48.04167" lon="6.93477">
        <ele>901.67</ele>
        <time>2018-02-20T13:07:18Z</time>
      </trkpt>
      <trkpt lat="48.04168" lon="6.9348">
        <ele>900.54</ele>
        <time>2018-02-20T13:07:23Z</time>
      </trkpt>
      <trkpt lat="48.0417" lon="6.93483">
        <ele>900.36</ele>
        <time>2018-02-20T13:07:27Z</time>
      </trkpt>
      <trkpt lat="48.04189" lon="6.93481">
        <ele>898.41</ele>
        <time>2018-02-20T13:07:39Z</time>
      </trkpt>
      <trkpt lat="48.04192" lon="6.93482">
        <ele>897.23</ele>
        <time>2018-02-20T13:07:44Z</time>
      </trkpt>
      <trkpt lat="48.04203" lon="6.93479">
        <ele>896.31</ele>
        <time>2018-02-20T13:07:57Z</time>
      </trkpt>
      <trkpt lat="48.04214" lon="6.93474">
        <ele>894.41</ele>
        <time>2018-02-20T13:08:09Z</time>
      </trkpt>
      <trkpt lat="48.04222" lon="6.93473">
        <ele>893.28</ele>
        <time>2018-02-20T13:08:17Z</time>
      </trkpt>
      <trkpt lat="48.04239" lon="6.93468">
        <ele>890.25</ele>
        <time>2018-02-20T13:08:38Z</time>
      </trkpt>
      <trkpt lat="48.04256" lon="6.93468">
        <ele>888.4</ele>
        <time>2018-02-20T13:08:56Z</time>
      </trkpt>
      <trkpt lat="48.04261" lon="6.93465">
        <ele>887.61</ele>
        <time>2018-02-20T13:09:00Z</time>
      </trkpt>
      <trkpt lat="48.04271" lon="6.93463">
        <ele>885.91</ele>
        <time>2018-02-20T13:09:08Z</time>
      </trkpt>
      <trkpt lat="48.04274" lon="6.93461">
        <ele>886.07</ele>
        <time>2018-02-20T13:09:10Z</time>
      </trkpt>
      <trkpt lat="48.04275" lon="6.93462">
        <ele>886.52</ele>
        <time>2018-02-20T13:09:12Z</time>
      </trkpt>
      <trkpt lat="48.04294" lon="6.93456">
        <ele>882.92</ele>
        <time>2018-02-20T13:09:30Z</time>
      </trkpt>
      <trkpt lat="48.0431" lon="6.9346">
        <ele>880.16</ele>
        <time>2018-02-20T13:09:47Z</time>
      </trkpt>
      <trkpt lat="48.04319" lon="6.93457">
        <ele>878.29</ele>
        <time>2018-02-20T13:09:58Z</time>
      </trkpt>
      <trkpt lat="48.04334" lon="6.93448">
        <ele>876.28</ele>
        <time>2018-02-20T13:10:15Z</time>
      </trkpt>
      <trkpt lat="48.04345" lon="6.93441">
        <ele>874.44</ele>
        <time>2018-02-20T13:10:28Z</time>
      </trkpt>
      <trkpt lat="48.04354" lon="6.93438">
        <ele>872.83</ele>
        <time>2018-02-20T13:10:39Z</time>
      </trkpt>
      <trkpt lat="48.04362" lon="6.93436">
        <ele>871.45</ele>
        <time>2018-02-20T13:10:49Z</time>
      </trkpt>
      <trkpt lat="48.04373" lon="6.93429">
        <ele>870.05</ele>
        <time>2018-02-20T13:11:01Z</time>
      </trkpt>
      <trkpt lat="48.04379" lon="6.93422">
        <ele>868.72</ele>
        <time>2018-02-20T13:11:10Z</time>
      </trkpt>
      <trkpt lat="48.04387" lon="6.9341">
        <ele>866.92</ele>
        <time>2018-02-20T13:11:19Z</time>
      </trkpt>
      <trkpt lat="48.04392" lon="6.93397">
        <ele>865.16</ele>
        <time>2018-02-20T13:11:30Z</time>
      </trkpt>
      <trkpt lat="48.04394" lon="6.93394">
        <ele>865.23</ele>
        <time>2018-02-20T13:11:43Z</time>
      </trkpt>
      <trkpt lat="48.04394" lon="6.93395">
        <ele>864.64</ele>
        <time>2018-02-20T13:11:54Z</time>
      </trkpt>
      <trkpt lat="48.04387" lon="6.93392">
        <ele>864.8</ele>
        <time>2018-02-20T13:12:12Z</time>
      </trkpt>
      <trkpt lat="48.04383" lon="6.93385">
        <ele>865.61</ele>
        <time>2018-02-20T13:12:35Z</time>
      </trkpt>
      <trkpt lat="48.0438" lon="6.93394">
        <ele>865.75</ele>
        <time>2018-02-20T13:13:01Z</time>
      </trkpt>
      <trkpt lat="48.04384" lon="6.93399">
        <ele>865.4</ele>
        <time>2018-02-20T13:13:19Z</time>
      </trkpt>
      <trkpt lat="48.0438" lon="6.93397">
        <ele>865.19</ele>
        <time>2018-02-20T13:13:42Z</time>
      </trkpt>
      <trkpt lat="48.0438" lon="6.93394">
        <ele>865.91</ele>
        <time>2018-02-20T13:13:53Z</time>
      </trkpt>
      <trkpt lat="48.04382" lon="6.93391">
        <ele>865.84</ele>
        <time>2018-02-20T13:14:22Z</time>
      </trkpt>
      <trkpt lat="48.04379" lon="6.93398">
        <ele>866.64</ele>
        <time>2018-02-20T13:14:49Z</time>
      </trkpt>
      <trkpt lat="48.04381" lon="6.93398">
        <ele>866.25</ele>
        <time>2018-02-20T13:15:10Z</time>
      </trkpt>
      <trkpt lat="48.04385" lon="6.93393">
        <ele>866.13</ele>
        <time>2018-02-20T13:15:35Z</time>
      </trkpt>
      <trkpt lat="48.04385" lon="6.93392">
        <ele>865.83</ele>
        <time>2018-02-20T13:15:51Z</time>
      </trkpt>
      <trkpt lat="48.04383" lon="6.93392">
        <ele>865.52</ele>
        <time>2018-02-20T13:16:15Z</time>
      </trkpt>
      <trkpt lat="48.04383" lon="6.93393">
        <ele>865.56</ele>
        <time>2018-02-20T13:16:22Z</time>
      </trkpt>
      <trkpt lat="48.0439" lon="6.93402">
        <ele>865.78</ele>
        <time>2018-02-20T13:16:30Z</time>
      </trkpt>
      <trkpt lat="48.04412" lon="6.93413">
        <ele>867.04</ele>
        <time>2018-02-20T13:16:49Z</time>
      </trkpt>
      <trkpt lat="48.04434" lon="6.93414">
        <ele>867.31</ele>
        <time>2018-02-20T13:17:08Z</time>
      </trkpt>
      <trkpt lat="48.04446" lon="6.93416">
        <ele>869.62</ele>
        <time>2018-02-20T13:17:22Z</time>
      </trkpt>
      <trkpt lat="48.0445" lon="6.93418">
        <ele>873.46</ele>
        <time>2018-02-20T13:17:37Z</time>
      </trkpt>
      <trkpt lat="48.04452" lon="6.93418">
        <ele>870.42</ele>
        <time>2018-02-20T13:17:39Z</time>
      </trkpt>
      <trkpt lat="48.04454" lon="6.93419">
        <ele>873.1</ele>
        <time>2018-02-20T13:17:43Z</time>
      </trkpt>
      <trkpt lat="48.0446" lon="6.9342">
        <ele>874.29</ele>
        <time>2018-02-20T13:17:50Z</time>
      </trkpt>
      <trkpt lat="48.04467" lon="6.93419">
        <ele>874.14</ele>
        <time>2018-02-20T13:17:57Z</time>
      </trkpt>
      <trkpt lat="48.0447" lon="6.93419">
        <ele>874.91</ele>
        <time>2018-02-20T13:17:59Z</time>
      </trkpt>
      <trkpt lat="48.04491" lon="6.9342">
        <ele>878.19</ele>
        <time>2018-02-20T13:18:15Z</time>
      </trkpt>
      <trkpt lat="48.04503" lon="6.93419">
        <ele>876.98</ele>
        <time>2018-02-20T13:18:22Z</time>
      </trkpt>
      <trkpt lat="48.0451" lon="6.93429">
        <ele>879.36</ele>
        <time>2018-02-20T13:18:34Z</time>
      </trkpt>
      <trkpt lat="48.04512" lon="6.93436">
        <ele>882.96</ele>
        <time>2018-02-20T13:18:41Z</time>
      </trkpt>
      <trkpt lat="48.04512" lon="6.93464">
        <ele>883.2</ele>
        <time>2018-02-20T13:19:04Z</time>
      </trkpt>
      <trkpt lat="48.0451" lon="6.93471">
        <ele>885.4</ele>
        <time>2018-02-20T13:19:10Z</time>
      </trkpt>
      <trkpt lat="48.04507" lon="6.93495">
        <ele>888.51</ele>
        <time>2018-02-20T13:19:27Z</time>
      </trkpt>
      <trkpt lat="48.04503" lon="6.93511">
        <ele>890.28</ele>
        <time>2018-02-20T13:19:39Z</time>
      </trkpt>
      <trkpt lat="48.045" lon="6.93521">
        <ele>891.13</ele>
        <time>2018-02-20T13:19:46Z</time>
      </trkpt>
      <trkpt lat="48.04499" lon="6.93532">
        <ele>893.17</ele>
        <time>2018-02-20T13:19:52Z</time>
      </trkpt>
      <trkpt lat="48.04497" lon="6.93535">
        <ele>891.56</ele>
        <time>2018-02-20T13:19:55Z</time>
      </trkpt>
      <trkpt lat="48.04496" lon="6.93537">
        <ele>891.83</ele>
        <time>2018-02-20T13:19:57Z</time>
      </trkpt>
      <trkpt lat="48.04493" lon="6.93546">
        <ele>895.02</ele>
        <time>2018-02-20T13:20:03Z</time>
      </trkpt>
      <trkpt lat="48.04494" lon="6.9355">
        <ele>894.06</ele>
        <time>2018-02-20T13:20:04Z</time>
      </trkpt>
      <trkpt lat="48.045" lon="6.93578">
        <ele>896.41</ele>
        <time>2018-02-20T13:20:19Z</time>
      </trkpt>
      <trkpt lat="48.04507" lon="6.93586">
        <ele>897.89</ele>
        <time>2018-02-20T13:20:27Z</time>
      </trkpt>
      <trkpt lat="48.04516" lon="6.93596">
        <ele>901.13</ele>
        <time>2018-02-20T13:20:39Z</time>
      </trkpt>
      <trkpt lat="48.04518" lon="6.93596">
        <ele>899.65</ele>
        <time>2018-02-20T13:20:40Z</time>
      </trkpt>
      <trkpt lat="48.04529" lon="6.93598">
        <ele>901.52</ele>
        <time>2018-02-20T13:20:50Z</time>
      </trkpt>
      <trkpt lat="48.04536" lon="6.93605">
        <ele>902.91</ele>
        <time>2018-02-20T13:21:01Z</time>
      </trkpt>
      <trkpt lat="48.04548" lon="6.93612">
        <ele>904.11</ele>
        <time>2018-02-20T13:21:14Z</time>
      </trkpt>
      <trkpt lat="48.04553" lon="6.93603">
        <ele>903.41</ele>
        <time>2018-02-20T13:21:37Z</time>
      </trkpt>
      <trkpt lat="48.04554" lon="6.93604">
        <ele>903.63</ele>
        <time>2018-02-20T13:22:01Z</time>
      </trkpt>
      <trkpt lat="48.04552" lon="6.93605">
        <ele>903.27</ele>
        <time>2018-02-20T13:22:25Z</time>
      </trkpt>
      <trkpt lat="48.04556" lon="6.93607">
        <ele>903.41</ele>
        <time>2018-02-20T13:22:52Z</time>
      </trkpt>
      <trkpt lat="48.04557" lon="6.9361">
        <ele>903.36</ele>
        <time>2018-02-20T13:23:14Z</time>
      </trkpt>
      <trkpt lat="48.04555" lon="6.93612">
        <ele>904.33</ele>
        <time>2018-02-20T13:23:43Z</time>
      </trkpt>
      <trkpt lat="48.04555" lon="6.93612">
        <ele>903.89</ele>
        <time>2018-02-20T13:24:15Z</time>
      </trkpt>
      <trkpt lat="48.0456" lon="6.93625">
        <ele>903.89</ele>
        <time>2018-02-20T13:24:38Z</time>
      </trkpt>
      <trkpt lat="48.04573" lon="6.93651">
        <ele>904.2</ele>
        <time>2018-02-20T13:25:02Z</time>
      </trkpt>
      <trkpt lat="48.0459" lon="6.93665">
        <ele>905.82</ele>
        <time>2018-02-20T13:25:20Z</time>
      </trkpt>
      <trkpt lat="48.04607" lon="6.93683">
        <ele>907.73</ele>
        <time>2018-02-20T13:25:42Z</time>
      </trkpt>
      <trkpt lat="48.04626" lon="6.93698">
        <ele>909.53</ele>
        <time>2018-02-20T13:26:02Z</time>
      </trkpt>
      <trkpt lat="48.04643" lon="6.93703">
        <ele>908.48</ele>
        <time>2018-02-20T13:26:24Z</time>
      </trkpt>
      <trkpt lat="48.04672" lon="6.93704">
        <ele>905.48</ele>
        <time>2018-02-20T13:26:46Z</time>
      </trkpt>
      <trkpt lat="48.04688" lon="6.93704">
        <ele>902.42</ele>
        <time>2018-02-20T13:27:03Z</time>
      </trkpt>
      <trkpt lat="48.04706" lon="6.93702">
        <ele>900.55</ele>
        <time>2018-02-20T13:27:25Z</time>
      </trkpt>
      <trkpt lat="48.0472" lon="6.93708">
        <ele>899.16</ele>
        <time>2018-02-20T13:27:41Z</time>
      </trkpt>
      <trkpt lat="48.0474" lon="6.93731">
        <ele>899.84</ele>
        <time>2018-02-20T13:28:07Z</time>
      </trkpt>
      <trkpt lat="48.04758" lon="6.93746">
        <ele>900.59</ele>
        <time>2018-02-20T13:28:27Z</time>
      </trkpt>
      <trkpt lat="48.04776" lon="6.93763">
        <ele>899.48</ele>
        <time>2018-02-20T13:28:48Z</time>
      </trkpt>
      <trkpt lat="48.04795" lon="6.93786">
        <ele>898.78</ele>
        <time>2018-02-20T13:29:10Z</time>
      </trkpt>
      <trkpt lat="48.04815" lon="6.93805">
        <ele>898.28</ele>
        <time>2018-02-20T13:29:32Z</time>
      </trkpt>
      <trkpt lat="48.04828" lon="6.93821">
        <ele>898.3</ele>
        <time>2018-02-20T13:29:46Z</time>
      </trkpt>
      <trkpt lat="48.04846" lon="6.9384">
        <ele>897.21</ele>
        <time>2018-02-20T13:30:07Z</time>
      </trkpt>
      <trkpt lat="48.04851" lon="6.93841">
        <ele>896.27</ele>
        <time>2018-02-20T13:30:13Z</time>
      </trkpt>
      <trkpt lat="48.04857" lon="6.93834">
        <ele>895.25</ele>
        <time>2018-02-20T13:30:21Z</time>
      </trkpt>
      <trkpt lat="48.04859" lon="6.93831">
        <ele>895.15</ele>
        <time>2018-02-20T13:30:23Z</time>
      </trkpt>
      <trkpt lat="48.0486" lon="6.93811">
        <ele>894.04</ele>
        <time>2018-02-20T13:30:42Z</time>
      </trkpt>
      <trkpt lat="48.04859" lon="6.93811">
        <ele>894.02</ele>
        <time>2018-02-20T13:31:06Z</time>
      </trkpt>
      <trkpt lat="48.04859" lon="6.93807">
        <ele>894.19</ele>
        <time>2018-02-20T13:31:35Z</time>
      </trkpt>
      <trkpt lat="48.04859" lon="6.9381">
        <ele>894.25</ele>
        <time>2018-02-20T13:31:58Z</time>
      </trkpt>
      <trkpt lat="48.04864" lon="6.93807">
        <ele>894.8</ele>
        <time>2018-02-20T13:32:26Z</time>
      </trkpt>
      <trkpt lat="48.04864" lon="6.93794">
        <ele>891.39</ele>
        <time>2018-02-20T13:32:44Z</time>
      </trkpt>
      <trkpt lat="48.04864" lon="6.93782">
        <ele>888.18</ele>
        <time>2018-02-20T13:32:55Z</time>
      </trkpt>
      <trkpt lat="48.04863" lon="6.93773">
        <ele>887.22</ele>
        <time>2018-02-20T13:33:01Z</time>
      </trkpt>
      <trkpt lat="48.04858" lon="6.93747">
        <ele>885.25</ele>
        <time>2018-02-20T13:33:18Z</time>
      </trkpt>
      <trkpt lat="48.04855" lon="6.93721">
        <ele>883.19</ele>
        <time>2018-02-20T13:33:34Z</time>
      </trkpt>
      <trkpt lat="48.04861" lon="6.93703">
        <ele>883.35</ele>
        <time>2018-02-20T13:33:50Z</time>
      </trkpt>
      <trkpt lat="48.04868" lon="6.93696">
        <ele>882.86</ele>
        <time>2018-02-20T13:34:04Z</time>
      </trkpt>
      <trkpt lat="48.04882" lon="6.93679">
        <ele>880.5</ele>
        <time>2018-02-20T13:34:19Z</time>
      </trkpt>
      <trkpt lat="48.04888" lon="6.9366">
        <ele>880.21</ele>
        <time>2018-02-20T13:34:34Z</time>
      </trkpt>
      <trkpt lat="48.04887" lon="6.93652">
        <ele>879.87</ele>
        <time>2018-02-20T13:34:39Z</time>
      </trkpt>
      <trkpt lat="48.04878" lon="6.93621">
        <ele>878.24</ele>
        <time>2018-02-20T13:34:57Z</time>
      </trkpt>
      <trkpt lat="48.04873" lon="6.93596">
        <ele>877.83</ele>
        <time>2018-02-20T13:35:12Z</time>
      </trkpt>
      <trkpt lat="48.0487" lon="6.93588">
        <ele>879.44</ele>
        <time>2018-02-20T13:35:19Z</time>
      </trkpt>
      <trkpt lat="48.04868" lon="6.93571">
        <ele>879.07</ele>
        <time>2018-02-20T13:35:32Z</time>
      </trkpt>
      <trkpt lat="48.04866" lon="6.93544">
        <ele>877.64</ele>
        <time>2018-02-20T13:35:52Z</time>
      </trkpt>
      <trkpt lat="48.04864" lon="6.93524">
        <ele>874.52</ele>
        <time>2018-02-20T13:36:08Z</time>
      </trkpt>
      <trkpt lat="48.04862" lon="6.93495">
        <ele>871.38</ele>
        <time>2018-02-20T13:36:26Z</time>
      </trkpt>
      <trkpt lat="48.04857" lon="6.93469">
        <ele>871.04</ele>
        <time>2018-02-20T13:36:44Z</time>
      </trkpt>
      <trkpt lat="48.04855" lon="6.93466">
        <ele>872.45</ele>
        <time>2018-02-20T13:36:46Z</time>
      </trkpt>
      <trkpt lat="48.04855" lon="6.93464">
        <ele>871.56</ele>
        <time>2018-02-20T13:36:47Z</time>
      </trkpt>
      <trkpt lat="48.04848" lon="6.9345">
        <ele>874.04</ele>
        <time>2018-02-20T13:37:04Z</time>
      </trkpt>
      <trkpt lat="48.04845" lon="6.93444">
        <ele>872.91</ele>
        <time>2018-02-20T13:37:24Z</time>
      </trkpt>
      <trkpt lat="48.04843" lon="6.93443">
        <ele>872.54</ele>
        <time>2018-02-20T13:37:43Z</time>
      </trkpt>
      <trkpt lat="48.04848" lon="6.93439">
        <ele>872.67</ele>
        <time>2018-02-20T13:38:11Z</time>
      </trkpt>
      <trkpt lat="48.04846" lon="6.93441">
        <ele>872.15</ele>
        <time>2018-02-20T13:38:38Z</time>
      </trkpt>
      <trkpt lat="48.04847" lon="6.93431">
        <ele>872.07</ele>
        <time>2018-02-20T13:38:58Z</time>
      </trkpt>
      <trkpt lat="48.0485" lon="6.934">
        <ele>874.33</ele>
        <time>2018-02-20T13:39:20Z</time>
      </trkpt>
      <trkpt lat="48.04852" lon="6.93388">
        <ele>875.49</ele>
        <time>2018-02-20T13:39:28Z</time>
      </trkpt>
      <trkpt lat="48.04857" lon="6.93364">
        <ele>875.23</ele>
        <time>2018-02-20T13:39:45Z</time>
      </trkpt>
      <trkpt lat="48.04854" lon="6.93341">
        <ele>876.96</ele>
        <time>2018-02-20T13:39:59Z</time>
      </trkpt>
      <trkpt lat="48.04849" lon="6.93324">
        <ele>877.19</ele>
        <time>2018-02-20T13:40:10Z</time>
      </trkpt>
      <trkpt lat="48.04831" lon="6.93307">
        <ele>877.78</ele>
        <time>2018-02-20T13:40:28Z</time>
      </trkpt>
      <trkpt lat="48.04811" lon="6.93294">
        <ele>876.36</ele>
        <time>2018-02-20T13:40:46Z</time>
      </trkpt>
      <trkpt lat="48.04797" lon="6.93286">
        <ele>875.54</ele>
        <time>2018-02-20T13:41:00Z</time>
      </trkpt>
      <trkpt lat="48.04779" lon="6.93282">
        <ele>873.73</ele>
        <time>2018-02-20T13:41:17Z</time>
      </trkpt>
      <trkpt lat="48.04752" lon="6.93277">
        <ele>872.04</ele>
        <time>2018-02-20T13:41:39Z</time>
      </trkpt>
      <trkpt lat="48.04747" lon="6.93276">
        <ele>871.2</ele>
        <time>2018-02-20T13:41:43Z</time>
      </trkpt>
      <trkpt lat="48.04738" lon="6.93277">
        <ele>870.88</ele>
        <time>2018-02-20T13:41:57Z</time>
      </trkpt>
      <trkpt lat="48.04736" lon="6.93275">
        <ele>870.76</ele>
        <time>2018-02-20T13:42:01Z</time>
      </trkpt>
      <trkpt lat="48.04714" lon="6.93265">
        <ele>868.77</ele>
        <time>2018-02-20T13:42:20Z</time>
      </trkpt>
      <trkpt lat="48.04706" lon="6.93265">
        <ele>868.56</ele>
        <time>2018-02-20T13:42:27Z</time>
      </trkpt>
      <trkpt lat="48.04696" lon="6.93258">
        <ele>866.58</ele>
        <time>2018-02-20T13:42:43Z</time>
      </trkpt>
      <trkpt lat="48.04693" lon="6.93256">
        <ele>866.06</ele>
        <time>2018-02-20T13:42:47Z</time>
      </trkpt>
      <trkpt lat="48.04689" lon="6.93253">
        <ele>866.44</ele>
        <time>2018-02-20T13:42:51Z</time>
      </trkpt>
      <trkpt lat="48.04684" lon="6.93249">
        <ele>866.79</ele>
        <time>2018-02-20T13:42:55Z</time>
      </trkpt>
      <trkpt lat="48.04677" lon="6.93244">
        <ele>867.76</ele>
        <time>2018-02-20T13:43:01Z</time>
      </trkpt>
      <trkpt lat="48.04661" lon="6.93239">
        <ele>866.76</ele>
        <time>2018-02-20T13:43:17Z</time>
      </trkpt>
      <trkpt lat="48.04653" lon="6.9324">
        <ele>867.21</ele>
        <time>2018-02-20T13:43:26Z</time>
      </trkpt>
      <trkpt lat="48.04647" lon="6.93242">
        <ele>866.05</ele>
        <time>2018-02-20T13:43:32Z</time>
      </trkpt>
      <trkpt lat="48.04633" lon="6.93249">
        <ele>865.15</ele>
        <time>2018-02-20T13:43:47Z</time>
      </trkpt>
      <trkpt lat="48.04626" lon="6.93252">
        <ele>865.5</ele>
        <time>2018-02-20T13:43:54Z</time>
      </trkpt>
      <trkpt lat="48.04621" lon="6.93254">
        <ele>866.04</ele>
        <time>2018-02-20T13:43:58Z</time>
      </trkpt>
      <trkpt lat="48.04607" lon="6.93254">
        <ele>866.81</ele>
        <time>2018-02-20T13:44:09Z</time>
      </trkpt>
      <trkpt lat="48.04587" lon="6.9325">
        <ele>866.25</ele>
        <time>2018-02-20T13:44:26Z</time>
      </trkpt>
      <trkpt lat="48.04577" lon="6.93248">
        <ele>869.91</ele>
        <time>2018-02-20T13:44:36Z</time>
      </trkpt>
      <trkpt lat="48.04567" lon="6.93247">
        <ele>871.7</ele>
        <time>2018-02-20T13:44:46Z</time>
      </trkpt>
      <trkpt lat="48.04562" lon="6.93247">
        <ele>871.83</ele>
        <time>2018-02-20T13:44:50Z</time>
      </trkpt>
      <trkpt lat="48.04547" lon="6.93242">
        <ele>872.89</ele>
        <time>2018-02-20T13:45:03Z</time>
      </trkpt>
      <trkpt lat="48.04545" lon="6.93232">
        <ele>872.05</ele>
        <time>2018-02-20T13:45:19Z</time>
      </trkpt>
      <trkpt lat="48.04529" lon="6.93223">
        <ele>871.28</ele>
        <time>2018-02-20T13:45:39Z</time>
      </trkpt>
      <trkpt lat="48.04522" lon="6.93222">
        <ele>870.91</ele>
        <time>2018-02-20T13:46:00Z</time>
      </trkpt>
      <trkpt lat="48.04511" lon="6.93213">
        <ele>868.43</ele>
        <time>2018-02-20T13:46:15Z</time>
      </trkpt>
      <trkpt lat="48.04508" lon="6.93211">
        <ele>868.23</ele>
        <time>2018-02-20T13:46:19Z</time>
      </trkpt>
      <trkpt lat="48.04507" lon="6.93202">
        <ele>867.4</ele>
        <time>2018-02-20T13:46:36Z</time>
      </trkpt>
      <trkpt lat="48.04511" lon="6.93206">
        <ele>867.68</ele>
        <time>2018-02-20T13:47:04Z</time>
      </trkpt>
      <trkpt lat="48.0451" lon="6.93205">
        <ele>867.54</ele>
        <time>2018-02-20T13:47:37Z</time>
      </trkpt>
      <trkpt lat="48.04507" lon="6.93195">
        <ele>867.29</ele>
        <time>2018-02-20T13:47:51Z</time>
      </trkpt>
      <trkpt lat="48.04502" lon="6.93182">
        <ele>866.45</ele>
        <time>2018-02-20T13:48:07Z</time>
      </trkpt>
      <trkpt lat="48.04498" lon="6.93178">
        <ele>866.7</ele>
        <time>2018-02-20T13:48:12Z</time>
      </trkpt>
      <trkpt lat="48.04496" lon="6.93174">
        <ele>866.5</ele>
        <time>2018-02-20T13:48:15Z</time>
      </trkpt>
      <trkpt lat="48.0448" lon="6.93157">
        <ele>866.71</ele>
        <time>2018-02-20T13:48:33Z</time>
      </trkpt>
      <trkpt lat="48.04463" lon="6.93138">
        <ele>867.25</ele>
        <time>2018-02-20T13:48:52Z</time>
      </trkpt>
      <trkpt lat="48.04462" lon="6.93137">
        <ele>867.44</ele>
        <time>2018-02-20T13:48:53Z</time>
      </trkpt>
      <trkpt lat="48.04446" lon="6.93116">
        <ele>867.91</ele>
        <time>2018-02-20T13:49:12Z</time>
      </trkpt>
      <trkpt lat="48.04432" lon="6.93097">
        <ele>869.75</ele>
        <time>2018-02-20T13:49:29Z</time>
      </trkpt>
      <trkpt lat="48.04419" lon="6.9308">
        <ele>870.5</ele>
        <time>2018-02-20T13:49:45Z</time>
      </trkpt>
      <trkpt lat="48.04411" lon="6.93069">
        <ele>869.81</ele>
        <time>2018-02-20T13:49:55Z</time>
      </trkpt>
      <trkpt lat="48.04406" lon="6.93063">
        <ele>869.98</ele>
        <time>2018-02-20T13:50:03Z</time>
      </trkpt>
      <trkpt lat="48.04404" lon="6.93062">
        <ele>869.85</ele>
        <time>2018-02-20T13:50:05Z</time>
      </trkpt>
      <trkpt lat="48.04403" lon="6.93059">
        <ele>869.31</ele>
        <time>2018-02-20T13:50:07Z</time>
      </trkpt>
      <trkpt lat="48.0439" lon="6.93041">
        <ele>869.7</ele>
        <time>2018-02-20T13:50:24Z</time>
      </trkpt>
      <trkpt lat="48.04376" lon="6.93031">
        <ele>868.69</ele>
        <time>2018-02-20T13:50:43Z</time>
      </trkpt>
      <trkpt lat="48.04371" lon="6.93029">
        <ele>868.41</ele>
        <time>2018-02-20T13:50:49Z</time>
      </trkpt>
      <trkpt lat="48.04357" lon="6.93035">
        <ele>867.76</ele>
        <time>2018-02-20T13:51:06Z</time>
      </trkpt>
      <trkpt lat="48.04344" lon="6.93042">
        <ele>865.71</ele>
        <time>2018-02-20T13:51:21Z</time>
      </trkpt>
      <trkpt lat="48.04333" lon="6.93052">
        <ele>866.32</ele>
        <time>2018-02-20T13:51:35Z</time>
      </trkpt>
      <trkpt lat="48.04332" lon="6.93054">
        <ele>865.86</ele>
        <time>2018-02-20T13:51:37Z</time>
      </trkpt>
      <trkpt lat="48.04316" lon="6.93074">
        <ele>865.06</ele>
        <time>2018-02-20T13:51:57Z</time>
      </trkpt>
      <trkpt lat="48.04298" lon="6.93095">
        <ele>863.12</ele>
        <time>2018-02-20T13:52:19Z</time>
      </trkpt>
      <trkpt lat="48.04284" lon="6.93112">
        <ele>860.06</ele>
        <time>2018-02-20T13:52:37Z</time>
      </trkpt>
      <trkpt lat="48.04275" lon="6.93119">
        <ele>860.1</ele>
        <time>2018-02-20T13:52:55Z</time>
      </trkpt>
      <trkpt lat="48.04275" lon="6.93128">
        <ele>860.96</ele>
        <time>2018-02-20T13:53:19Z</time>
      </trkpt>
      <trkpt lat="48.04269" lon="6.9313">
        <ele>860.12</ele>
        <time>2018-02-20T13:53:36Z</time>
      </trkpt>
      <trkpt lat="48.04271" lon="6.93129">
        <ele>860.31</ele>
        <time>2018-02-20T13:54:05Z</time>
      </trkpt>
      <trkpt lat="48.04273" lon="6.93129">
        <ele>860.17</ele>
        <time>2018-02-20T13:54:37Z</time>
      </trkpt>
      <trkpt lat="48.04275" lon="6.93132">
        <ele>860.24</ele>
        <time>2018-02-20T13:55:08Z</time>
      </trkpt>
      <trkpt lat="48.04279" lon="6.93129">
        <ele>861.4</ele>
        <time>2018-02-20T13:55:36Z</time>
      </trkpt>
      <trkpt lat="48.04275" lon="6.93127">
        <ele>860.3</ele>
        <time>2018-02-20T13:56:06Z</time>
      </trkpt>
      <trkpt lat="48.04272" lon="6.93128">
        <ele>861.31</ele>
        <time>2018-02-20T13:56:37Z</time>
      </trkpt>
      <trkpt lat="48.04268" lon="6.93131">
        <ele>859.91</ele>
        <time>2018-02-20T13:56:58Z</time>
      </trkpt>
      <trkpt lat="48.04261" lon="6.93143">
        <ele>860.85</ele>
        <time>2018-02-20T13:57:15Z</time>
      </trkpt>
      <trkpt lat="48.04261" lon="6.93147">
        <ele>861.27</ele>
        <time>2018-02-20T13:57:17Z</time>
      </trkpt>
      <trkpt lat="48.04262" lon="6.93156">
        <ele>861.22</ele>
        <time>2018-02-20T13:57:24Z</time>
      </trkpt>
      <trkpt lat="48.04265" lon="6.93181">
        <ele>861.02</ele>
        <time>2018-02-20T13:57:40Z</time>
      </trkpt>
      <trkpt lat="48.04267" lon="6.93207">
        <ele>861.98</ele>
        <time>2018-02-20T13:57:57Z</time>
      </trkpt>
      <trkpt lat="48.04279" lon="6.93226">
        <ele>861.66</ele>
        <time>2018-02-20T13:58:13Z</time>
      </trkpt>
      <trkpt lat="48.04279" lon="6.93227">
        <ele>858.57</ele>
        <time>2018-02-20T13:58:18Z</time>
      </trkpt>
      <trkpt lat="48.04279" lon="6.93227">
        <ele>861.15</ele>
        <time>2018-02-20T13:58:20Z</time>
      </trkpt>
      <trkpt lat="48.04279" lon="6.93227">
        <ele>865.57</ele>
        <time>2018-02-20T13:58:22Z</time>
      </trkpt>
      <trkpt lat="48.04279" lon="6.93226">
        <ele>861.6</ele>
        <time>2018-02-20T13:58:24Z</time>
      </trkpt>
      <trkpt lat="48.04279" lon="6.93227">
        <ele>857.01</ele>
        <time>2018-02-20T13:58:25Z</time>
      </trkpt>
      <trkpt lat="48.04279" lon="6.93227">
        <ele>848</ele>
        <time>2018-02-20T13:58:26Z</time>
      </trkpt>
      <trkpt lat="48.04279" lon="6.93227">
        <ele>858.38</ele>
        <time>2018-02-20T13:58:27Z</time>
      </trkpt>
      <trkpt lat="48.04279" lon="6.93227">
        <ele>862.57</ele>
        <time>2018-02-20T13:58:28Z</time>
      </trkpt>
      <trkpt lat="48.04279" lon="6.93227">
        <ele>860.74</ele>
        <time>2018-02-20T13:58:29Z</time>
      </trkpt>
      <trkpt lat="48.04279" lon="6.93226">
        <ele>875.58</ele>
        <time>2018-02-20T13:58:30Z</time>
      </trkpt>
      <trkpt lat="48.04279" lon="6.93227">
        <ele>867.88</ele>
        <time>2018-02-20T13:58:31Z</time>
      </trkpt>
      <trkpt lat="48.04279" lon="6.93227">
        <ele>861.67</ele>
        <time>2018-02-20T13:58:32Z</time>
      </trkpt>
      <trkpt lat="48.04279" lon="6.93227">
        <ele>862</ele>
        <time>2018-02-20T13:58:33Z</time>
      </trkpt>
      <trkpt lat="48.04278" lon="6.93227">
        <ele>857.95</ele>
        <time>2018-02-20T13:58:42Z</time>
      </trkpt>
      <trkpt lat="48.04278" lon="6.93228">
        <ele>861.06</ele>
        <time>2018-02-20T13:58:43Z</time>
      </trkpt>
      <trkpt lat="48.04277" lon="6.93227">
        <ele>850.85</ele>
        <time>2018-02-20T13:58:51Z</time>
      </trkpt>
      <trkpt lat="48.04277" lon="6.93226">
        <ele>872.39</ele>
        <time>2018-02-20T13:58:52Z</time>
      </trkpt>
      <trkpt lat="48.04277" lon="6.93227">
        <ele>863.06</ele>
        <time>2018-02-20T13:58:53Z</time>
      </trkpt>
      <trkpt lat="48.04276" lon="6.93227">
        <ele>862.07</ele>
        <time>2018-02-20T13:58:55Z</time>
      </trkpt>
      <trkpt lat="48.04277" lon="6.93231">
        <ele>863.1</ele>
        <time>2018-02-20T13:59:02Z</time>
      </trkpt>
      <trkpt lat="48.04279" lon="6.93234">
        <ele>861.49</ele>
        <time>2018-02-20T13:59:04Z</time>
      </trkpt>
      <trkpt lat="48.0428" lon="6.93237">
        <ele>861.39</ele>
        <time>2018-02-20T13:59:06Z</time>
      </trkpt>
      <trkpt lat="48.04301" lon="6.93252">
        <ele>862.23</ele>
        <time>2018-02-20T13:59:25Z</time>
      </trkpt>
      <trkpt lat="48.04303" lon="6.93253">
        <ele>861.33</ele>
        <time>2018-02-20T13:59:27Z</time>
      </trkpt>
      <trkpt lat="48.04304" lon="6.93254">
        <ele>861.98</ele>
        <time>2018-02-20T13:59:52Z</time>
      </trkpt>
      <trkpt lat="48.04305" lon="6.93256">
        <ele>859.62</ele>
        <time>2018-02-20T14:00:15Z</time>
      </trkpt>
      <trkpt lat="48.04305" lon="6.93256">
        <ele>865.1</ele>
        <time>2018-02-20T14:00:17Z</time>
      </trkpt>
      <trkpt lat="48.04305" lon="6.93256">
        <ele>861.36</ele>
        <time>2018-02-20T14:00:18Z</time>
      </trkpt>
      <trkpt lat="48.04306" lon="6.93258">
        <ele>861.86</ele>
        <time>2018-02-20T14:00:43Z</time>
      </trkpt>
      <trkpt lat="48.04307" lon="6.93258">
        <ele>861.82</ele>
        <time>2018-02-20T14:01:15Z</time>
      </trkpt>
      <trkpt lat="48.04307" lon="6.93257">
        <ele>855.47</ele>
        <time>2018-02-20T14:01:27Z</time>
      </trkpt>
      <trkpt lat="48.04307" lon="6.93257">
        <ele>861.64</ele>
        <time>2018-02-20T14:01:28Z</time>
      </trkpt>
      <trkpt lat="48.04307" lon="6.93257">
        <ele>865.09</ele>
        <time>2018-02-20T14:01:31Z</time>
      </trkpt>
      <trkpt lat="48.04307" lon="6.93257">
        <ele>861.17</ele>
        <time>2018-02-20T14:01:32Z</time>
      </trkpt>
      <trkpt lat="48.04306" lon="6.93257">
        <ele>858.04</ele>
        <time>2018-02-20T14:01:33Z</time>
      </trkpt>
      <trkpt lat="48.04306" lon="6.93257">
        <ele>860.04</ele>
        <time>2018-02-20T14:01:34Z</time>
      </trkpt>
      <trkpt lat="48.04307" lon="6.93257">
        <ele>864.68</ele>
        <time>2018-02-20T14:01:38Z</time>
      </trkpt>
      <trkpt lat="48.04307" lon="6.93257">
        <ele>863.79</ele>
        <time>2018-02-20T14:01:39Z</time>
      </trkpt>
      <trkpt lat="48.04307" lon="6.93257">
        <ele>861.2</ele>
        <time>2018-02-20T14:01:41Z</time>
      </trkpt>
      <trkpt lat="48.04309" lon="6.93257">
        <ele>861.29</ele>
        <time>2018-02-20T14:02:06Z</time>
      </trkpt>
      <trkpt lat="48.04309" lon="6.93256">
        <ele>861.67</ele>
        <time>2018-02-20T14:02:30Z</time>
      </trkpt>
    </trkseg>
  </trk>
</gpx>